<?xml version="1.0" encoding="UTF-8" standalone="no" ?>
<gpx xmlns="http://www.topografix.com/GPX/1/1" xmlns:xsi="http://www.w3.org/2001/XMLSchema-instance" xsi:schemaLocation="http://www.topografix.com/GPX/1/1 http://www.topografix.com/GPX/1/1/gpx.xsd" version="1.1" creator="VisuGPX - https://www.visugpx.com">
  <metadata>
    <name>Bon-repos à Trégnanton par le fond du lac !</name>
    <desc><![CDATA[Rando pédestre de Bon-repos à Trégnanton par le fond du lac.]]></desc>
  </metadata>
  <trk>
    <name><![CDATA[Bon-repos à Trégnanton par le fond du lac !_1]]></name>
    <trkseg>
      <trkpt lat="48.21073" lon="-3.1222">
        <ele>136.000015</ele>
        <time>2015-07-12T13:58:01Z</time>
      </trkpt>
      <trkpt lat="48.21078" lon="-3.12206">
        <ele>135</ele>
        <time>2015-07-12T13:58:05Z</time>
      </trkpt>
      <trkpt lat="48.21077" lon="-3.12189">
        <ele>135</ele>
        <time>2015-07-12T13:58:15Z</time>
      </trkpt>
      <trkpt lat="48.21076" lon="-3.12174">
        <ele>135</ele>
        <time>2015-07-12T13:58:23Z</time>
      </trkpt>
      <trkpt lat="48.21079" lon="-3.12154">
        <ele>135</ele>
        <time>2015-07-12T13:58:35Z</time>
      </trkpt>
      <trkpt lat="48.21078" lon="-3.12137">
        <ele>135</ele>
        <time>2015-07-12T13:58:43Z</time>
      </trkpt>
      <trkpt lat="48.21079" lon="-3.12123">
        <ele>135</ele>
        <time>2015-07-12T13:58:51Z</time>
      </trkpt>
      <trkpt lat="48.21081" lon="-3.12109">
        <ele>134.9</ele>
        <time>2015-07-12T13:59:01Z</time>
      </trkpt>
      <trkpt lat="48.2108" lon="-3.12094">
        <ele>134.8</ele>
        <time>2015-07-12T13:59:09Z</time>
      </trkpt>
      <trkpt lat="48.21082" lon="-3.1208">
        <ele>134.8</ele>
        <time>2015-07-12T13:59:18Z</time>
      </trkpt>
      <trkpt lat="48.21083" lon="-3.12064">
        <ele>134.7</ele>
        <time>2015-07-12T13:59:26Z</time>
      </trkpt>
      <trkpt lat="48.21085" lon="-3.12049">
        <ele>134.5</ele>
        <time>2015-07-12T13:59:35Z</time>
      </trkpt>
      <trkpt lat="48.21083" lon="-3.12036">
        <ele>134.4</ele>
        <time>2015-07-12T13:59:43Z</time>
      </trkpt>
      <trkpt lat="48.21079" lon="-3.12022">
        <ele>134.3</ele>
        <time>2015-07-12T13:59:49Z</time>
      </trkpt>
      <trkpt lat="48.21075" lon="-3.12006">
        <ele>134.2</ele>
        <time>2015-07-12T13:59:56Z</time>
      </trkpt>
      <trkpt lat="48.21073" lon="-3.11992">
        <ele>134.2</ele>
        <time>2015-07-12T14:00:02Z</time>
      </trkpt>
      <trkpt lat="48.21068" lon="-3.1198">
        <ele>134.2</ele>
        <time>2015-07-12T14:00:06Z</time>
      </trkpt>
      <trkpt lat="48.21061" lon="-3.11969">
        <ele>134.2</ele>
        <time>2015-07-12T14:00:12Z</time>
      </trkpt>
      <trkpt lat="48.21059" lon="-3.11955">
        <ele>134.2</ele>
        <time>2015-07-12T14:00:18Z</time>
      </trkpt>
      <trkpt lat="48.21053" lon="-3.11944">
        <ele>134.2</ele>
        <time>2015-07-12T14:00:25Z</time>
      </trkpt>
      <trkpt lat="48.21054" lon="-3.1193">
        <ele>134.2</ele>
        <time>2015-07-12T14:00:32Z</time>
      </trkpt>
      <trkpt lat="48.21055" lon="-3.11915">
        <ele>134.5</ele>
        <time>2015-07-12T14:00:41Z</time>
      </trkpt>
      <trkpt lat="48.21053" lon="-3.11899">
        <ele>134.7</ele>
        <time>2015-07-12T14:00:50Z</time>
      </trkpt>
      <trkpt lat="48.21047" lon="-3.11888">
        <ele>134.7</ele>
        <time>2015-07-12T14:00:56Z</time>
      </trkpt>
      <trkpt lat="48.21039" lon="-3.11872">
        <ele>134</ele>
        <time>2015-07-12T14:01:02Z</time>
      </trkpt>
      <trkpt lat="48.21034" lon="-3.11858">
        <ele>134.8</ele>
        <time>2015-07-12T14:01:09Z</time>
      </trkpt>
      <trkpt lat="48.21033" lon="-3.11845">
        <ele>134</ele>
        <time>2015-07-12T14:01:18Z</time>
      </trkpt>
      <trkpt lat="48.21032" lon="-3.11828">
        <ele>134</ele>
        <time>2015-07-12T14:01:29Z</time>
      </trkpt>
      <trkpt lat="48.21028" lon="-3.11814">
        <ele>134.9</ele>
        <time>2015-07-12T14:01:36Z</time>
      </trkpt>
      <trkpt lat="48.21028" lon="-3.118">
        <ele>134.9</ele>
        <time>2015-07-12T14:01:50Z</time>
      </trkpt>
      <trkpt lat="48.21025" lon="-3.11786">
        <ele>134</ele>
        <time>2015-07-12T14:01:56Z</time>
      </trkpt>
      <trkpt lat="48.21021" lon="-3.11773">
        <ele>134.9</ele>
        <time>2015-07-12T14:02:00Z</time>
      </trkpt>
      <trkpt lat="48.21018" lon="-3.11755">
        <ele>134</ele>
        <time>2015-07-12T14:02:10Z</time>
      </trkpt>
      <trkpt lat="48.21009" lon="-3.11741">
        <ele>134.6</ele>
        <time>2015-07-12T14:02:17Z</time>
      </trkpt>
      <trkpt lat="48.21005" lon="-3.11728">
        <ele>134.4</ele>
        <time>2015-07-12T14:02:28Z</time>
      </trkpt>
      <trkpt lat="48.20997" lon="-3.1172">
        <ele>134.3</ele>
        <time>2015-07-12T14:02:35Z</time>
      </trkpt>
      <trkpt lat="48.21007" lon="-3.1172">
        <ele>134.1</ele>
        <time>2015-07-12T14:02:47Z</time>
      </trkpt>
      <trkpt lat="48.21016" lon="-3.11728">
        <ele>133.8</ele>
        <time>2015-07-12T14:02:54Z</time>
      </trkpt>
      <trkpt lat="48.21033" lon="-3.11738">
        <ele>133</ele>
        <time>2015-07-12T14:03:03Z</time>
      </trkpt>
      <trkpt lat="48.21043" lon="-3.11747">
        <ele>133.6</ele>
        <time>2015-07-12T14:03:07Z</time>
      </trkpt>
      <trkpt lat="48.21052" lon="-3.11754">
        <ele>133.6</ele>
        <time>2015-07-12T14:03:09Z</time>
      </trkpt>
      <trkpt lat="48.21075" lon="-3.11768">
        <ele>133</ele>
        <time>2015-07-12T14:03:15Z</time>
      </trkpt>
      <trkpt lat="48.21086" lon="-3.11774">
        <ele>133.6</ele>
        <time>2015-07-12T14:03:20Z</time>
      </trkpt>
      <trkpt lat="48.21093" lon="-3.1179">
        <ele>133</ele>
        <time>2015-07-12T14:03:38Z</time>
      </trkpt>
      <trkpt lat="48.21085" lon="-3.11768">
        <ele>133</ele>
        <time>2015-07-12T14:03:48Z</time>
      </trkpt>
      <trkpt lat="48.21072" lon="-3.11748">
        <ele>133</ele>
        <time>2015-07-12T14:03:56Z</time>
      </trkpt>
      <trkpt lat="48.21083" lon="-3.11755">
        <ele>133</ele>
        <time>2015-07-12T14:04:06Z</time>
      </trkpt>
      <trkpt lat="48.2107" lon="-3.11735">
        <ele>133</ele>
        <time>2015-07-12T14:04:12Z</time>
      </trkpt>
      <trkpt lat="48.21063" lon="-3.11725">
        <ele>133</ele>
        <time>2015-07-12T14:04:20Z</time>
      </trkpt>
      <trkpt lat="48.21071" lon="-3.11745">
        <ele>133</ele>
        <time>2015-07-12T14:04:26Z</time>
      </trkpt>
      <trkpt lat="48.2105" lon="-3.11733">
        <ele>133</ele>
        <time>2015-07-12T14:04:41Z</time>
      </trkpt>
      <trkpt lat="48.21007" lon="-3.1168">
        <ele>133</ele>
        <time>2015-07-12T14:04:49Z</time>
      </trkpt>
      <trkpt lat="48.20964" lon="-3.11629">
        <ele>132</ele>
        <time>2015-07-12T14:04:55Z</time>
      </trkpt>
      <trkpt lat="48.20945" lon="-3.11612">
        <ele>132</ele>
        <time>2015-07-12T14:04:59Z</time>
      </trkpt>
      <trkpt lat="48.20931" lon="-3.11603">
        <ele>132</ele>
        <time>2015-07-12T14:05:05Z</time>
      </trkpt>
      <trkpt lat="48.20923" lon="-3.1161">
        <ele>132</ele>
        <time>2015-07-12T14:05:10Z</time>
      </trkpt>
      <trkpt lat="48.20942" lon="-3.11663">
        <ele>132</ele>
        <time>2015-07-12T14:05:18Z</time>
      </trkpt>
      <trkpt lat="48.20929" lon="-3.1167">
        <ele>132</ele>
        <time>2015-07-12T14:05:26Z</time>
      </trkpt>
      <trkpt lat="48.20933" lon="-3.1169">
        <ele>132</ele>
        <time>2015-07-12T14:05:35Z</time>
      </trkpt>
      <trkpt lat="48.20933" lon="-3.11707">
        <ele>132</ele>
        <time>2015-07-12T14:05:50Z</time>
      </trkpt>
      <trkpt lat="48.20923" lon="-3.11701">
        <ele>132</ele>
        <time>2015-07-12T14:05:59Z</time>
      </trkpt>
      <trkpt lat="48.20898" lon="-3.11672">
        <ele>132</ele>
        <time>2015-07-12T14:06:07Z</time>
      </trkpt>
      <trkpt lat="48.20888" lon="-3.11658">
        <ele>132.2</ele>
        <time>2015-07-12T14:06:10Z</time>
      </trkpt>
      <trkpt lat="48.20871" lon="-3.1165">
        <ele>132</ele>
        <time>2015-07-12T14:06:21Z</time>
      </trkpt>
      <trkpt lat="48.20862" lon="-3.11651">
        <ele>132.3</ele>
        <time>2015-07-12T14:06:31Z</time>
      </trkpt>
      <trkpt lat="48.20865" lon="-3.11673">
        <ele>132.3</ele>
        <time>2015-07-12T14:06:41Z</time>
      </trkpt>
      <trkpt lat="48.2087" lon="-3.11686">
        <ele>132</ele>
        <time>2015-07-12T14:06:50Z</time>
      </trkpt>
      <trkpt lat="48.20883" lon="-3.11741">
        <ele>132</ele>
        <time>2015-07-12T14:07:20Z</time>
      </trkpt>
      <trkpt lat="48.20873" lon="-3.11729">
        <ele>132</ele>
        <time>2015-07-12T14:07:27Z</time>
      </trkpt>
      <trkpt lat="48.20863" lon="-3.11713">
        <ele>132.5</ele>
        <time>2015-07-12T14:07:30Z</time>
      </trkpt>
      <trkpt lat="48.20856" lon="-3.11702">
        <ele>132</ele>
        <time>2015-07-12T14:07:34Z</time>
      </trkpt>
      <trkpt lat="48.20845" lon="-3.11685">
        <ele>132</ele>
        <time>2015-07-12T14:07:41Z</time>
      </trkpt>
      <trkpt lat="48.20851" lon="-3.11696">
        <ele>132.9</ele>
        <time>2015-07-12T14:07:53Z</time>
      </trkpt>
      <trkpt lat="48.20839" lon="-3.11688">
        <ele>133</ele>
        <time>2015-07-12T14:08:05Z</time>
      </trkpt>
      <trkpt lat="48.2079" lon="-3.11621">
        <ele>133</ele>
        <time>2015-07-12T14:08:14Z</time>
      </trkpt>
      <trkpt lat="48.20769" lon="-3.11593">
        <ele>133</ele>
        <time>2015-07-12T14:08:20Z</time>
      </trkpt>
      <trkpt lat="48.20757" lon="-3.1158">
        <ele>133.5</ele>
        <time>2015-07-12T14:08:23Z</time>
      </trkpt>
      <trkpt lat="48.2075" lon="-3.1157">
        <ele>133.6</ele>
        <time>2015-07-12T14:08:26Z</time>
      </trkpt>
      <trkpt lat="48.20743" lon="-3.11561">
        <ele>133.6</ele>
        <time>2015-07-12T14:08:28Z</time>
      </trkpt>
      <trkpt lat="48.20737" lon="-3.1155">
        <ele>133.6</ele>
        <time>2015-07-12T14:08:30Z</time>
      </trkpt>
      <trkpt lat="48.2073" lon="-3.11537">
        <ele>133.7</ele>
        <time>2015-07-12T14:08:40Z</time>
      </trkpt>
      <trkpt lat="48.20723" lon="-3.11525">
        <ele>133.7</ele>
        <time>2015-07-12T14:08:44Z</time>
      </trkpt>
      <trkpt lat="48.20714" lon="-3.11507">
        <ele>133</ele>
        <time>2015-07-12T14:08:50Z</time>
      </trkpt>
      <trkpt lat="48.20707" lon="-3.11495">
        <ele>133.7</ele>
        <time>2015-07-12T14:08:53Z</time>
      </trkpt>
      <trkpt lat="48.20699" lon="-3.11483">
        <ele>133.7</ele>
        <time>2015-07-12T14:08:59Z</time>
      </trkpt>
      <trkpt lat="48.20691" lon="-3.11472">
        <ele>133.7</ele>
        <time>2015-07-12T14:09:03Z</time>
      </trkpt>
      <trkpt lat="48.20682" lon="-3.11462">
        <ele>133.7</ele>
        <time>2015-07-12T14:09:06Z</time>
      </trkpt>
      <trkpt lat="48.20676" lon="-3.1145">
        <ele>133</ele>
        <time>2015-07-12T14:09:10Z</time>
      </trkpt>
      <trkpt lat="48.20668" lon="-3.1144">
        <ele>133.7</ele>
        <time>2015-07-12T14:09:17Z</time>
      </trkpt>
      <trkpt lat="48.2066" lon="-3.1143">
        <ele>133.7</ele>
        <time>2015-07-12T14:09:22Z</time>
      </trkpt>
      <trkpt lat="48.20653" lon="-3.11418">
        <ele>133.7</ele>
        <time>2015-07-12T14:09:27Z</time>
      </trkpt>
      <trkpt lat="48.20662" lon="-3.11417">
        <ele>133.7</ele>
        <time>2015-07-12T14:09:48Z</time>
      </trkpt>
      <trkpt lat="48.20626" lon="-3.11357">
        <ele>133</ele>
        <time>2015-07-12T14:10:23Z</time>
      </trkpt>
      <trkpt lat="48.2062" lon="-3.11334">
        <ele>133</ele>
        <time>2015-07-12T14:10:44Z</time>
      </trkpt>
      <trkpt lat="48.20569" lon="-3.11259">
        <ele>133</ele>
        <time>2015-07-12T14:11:00Z</time>
      </trkpt>
      <trkpt lat="48.2057" lon="-3.11238">
        <ele>133.2</ele>
        <time>2015-07-12T14:11:05Z</time>
      </trkpt>
      <trkpt lat="48.2057" lon="-3.11222">
        <ele>133.2</ele>
        <time>2015-07-12T14:11:09Z</time>
      </trkpt>
      <trkpt lat="48.20571" lon="-3.11207">
        <ele>133.2</ele>
        <time>2015-07-12T14:11:13Z</time>
      </trkpt>
      <trkpt lat="48.2057" lon="-3.11192">
        <ele>133.2</ele>
        <time>2015-07-12T14:11:18Z</time>
      </trkpt>
      <trkpt lat="48.2057" lon="-3.11179">
        <ele>133.2</ele>
        <time>2015-07-12T14:11:25Z</time>
      </trkpt>
      <trkpt lat="48.20571" lon="-3.1116">
        <ele>133.2</ele>
        <time>2015-07-12T14:11:34Z</time>
      </trkpt>
      <trkpt lat="48.20572" lon="-3.11145">
        <ele>133.2</ele>
        <time>2015-07-12T14:11:42Z</time>
      </trkpt>
      <trkpt lat="48.20573" lon="-3.1113">
        <ele>133</ele>
        <time>2015-07-12T14:11:51Z</time>
      </trkpt>
      <trkpt lat="48.20572" lon="-3.11114">
        <ele>133</ele>
        <time>2015-07-12T14:12:00Z</time>
      </trkpt>
      <trkpt lat="48.20573" lon="-3.11099">
        <ele>133.2</ele>
        <time>2015-07-12T14:12:10Z</time>
      </trkpt>
      <trkpt lat="48.20576" lon="-3.11085">
        <ele>133.3</ele>
        <time>2015-07-12T14:12:18Z</time>
      </trkpt>
      <trkpt lat="48.2058" lon="-3.11073">
        <ele>133.3</ele>
        <time>2015-07-12T14:12:26Z</time>
      </trkpt>
      <trkpt lat="48.20585" lon="-3.11061">
        <ele>133.4</ele>
        <time>2015-07-12T14:12:34Z</time>
      </trkpt>
      <trkpt lat="48.20592" lon="-3.11051">
        <ele>133.3</ele>
        <time>2015-07-12T14:12:42Z</time>
      </trkpt>
      <trkpt lat="48.20601" lon="-3.11045">
        <ele>133.2</ele>
        <time>2015-07-12T14:12:52Z</time>
      </trkpt>
      <trkpt lat="48.20611" lon="-3.11044">
        <ele>133.1</ele>
        <time>2015-07-12T14:12:59Z</time>
      </trkpt>
      <trkpt lat="48.20621" lon="-3.11043">
        <ele>133</ele>
        <time>2015-07-12T14:13:08Z</time>
      </trkpt>
      <trkpt lat="48.20631" lon="-3.11043">
        <ele>133</ele>
        <time>2015-07-12T14:13:16Z</time>
      </trkpt>
      <trkpt lat="48.20641" lon="-3.11043">
        <ele>132.9</ele>
        <time>2015-07-12T14:13:22Z</time>
      </trkpt>
      <trkpt lat="48.2065" lon="-3.11043">
        <ele>132.9</ele>
        <time>2015-07-12T14:13:29Z</time>
      </trkpt>
      <trkpt lat="48.20661" lon="-3.11039">
        <ele>133</ele>
        <time>2015-07-12T14:13:36Z</time>
      </trkpt>
      <trkpt lat="48.20669" lon="-3.11032">
        <ele>133.1</ele>
        <time>2015-07-12T14:13:43Z</time>
      </trkpt>
      <trkpt lat="48.20679" lon="-3.11026">
        <ele>133.1</ele>
        <time>2015-07-12T14:13:51Z</time>
      </trkpt>
      <trkpt lat="48.20688" lon="-3.11019">
        <ele>133</ele>
        <time>2015-07-12T14:13:59Z</time>
      </trkpt>
      <trkpt lat="48.20696" lon="-3.11011">
        <ele>133</ele>
        <time>2015-07-12T14:14:07Z</time>
      </trkpt>
      <trkpt lat="48.20704" lon="-3.11005">
        <ele>133</ele>
        <time>2015-07-12T14:14:16Z</time>
      </trkpt>
      <trkpt lat="48.20712" lon="-3.10996">
        <ele>133</ele>
        <time>2015-07-12T14:14:25Z</time>
      </trkpt>
      <trkpt lat="48.20721" lon="-3.10992">
        <ele>132.9</ele>
        <time>2015-07-12T14:14:34Z</time>
      </trkpt>
      <trkpt lat="48.2073" lon="-3.10994">
        <ele>132.9</ele>
        <time>2015-07-12T14:14:45Z</time>
      </trkpt>
      <trkpt lat="48.20738" lon="-3.10987">
        <ele>132.5</ele>
        <time>2015-07-12T14:14:54Z</time>
      </trkpt>
      <trkpt lat="48.20747" lon="-3.10984">
        <ele>132</ele>
        <time>2015-07-12T14:15:03Z</time>
      </trkpt>
      <trkpt lat="48.20755" lon="-3.10977">
        <ele>131.6</ele>
        <time>2015-07-12T14:15:12Z</time>
      </trkpt>
      <trkpt lat="48.20764" lon="-3.10973">
        <ele>131.1</ele>
        <time>2015-07-12T14:15:20Z</time>
      </trkpt>
      <trkpt lat="48.20774" lon="-3.10969">
        <ele>130.8</ele>
        <time>2015-07-12T14:15:29Z</time>
      </trkpt>
      <trkpt lat="48.20782" lon="-3.10962">
        <ele>130.6</ele>
        <time>2015-07-12T14:15:37Z</time>
      </trkpt>
      <trkpt lat="48.20793" lon="-3.10961">
        <ele>130.3</ele>
        <time>2015-07-12T14:15:44Z</time>
      </trkpt>
      <trkpt lat="48.20802" lon="-3.10957">
        <ele>130.1</ele>
        <time>2015-07-12T14:15:53Z</time>
      </trkpt>
      <trkpt lat="48.2081" lon="-3.10949">
        <ele>130</ele>
        <time>2015-07-12T14:16:01Z</time>
      </trkpt>
      <trkpt lat="48.20818" lon="-3.10943">
        <ele>129.9</ele>
        <time>2015-07-12T14:16:12Z</time>
      </trkpt>
      <trkpt lat="48.20825" lon="-3.10933">
        <ele>129.9</ele>
        <time>2015-07-12T14:16:20Z</time>
      </trkpt>
      <trkpt lat="48.20833" lon="-3.10925">
        <ele>129.9</ele>
        <time>2015-07-12T14:16:28Z</time>
      </trkpt>
      <trkpt lat="48.2084" lon="-3.10916">
        <ele>129.8</ele>
        <time>2015-07-12T14:16:35Z</time>
      </trkpt>
      <trkpt lat="48.20846" lon="-3.10906">
        <ele>129.8</ele>
        <time>2015-07-12T14:16:43Z</time>
      </trkpt>
      <trkpt lat="48.20853" lon="-3.10896">
        <ele>129.8</ele>
        <time>2015-07-12T14:16:52Z</time>
      </trkpt>
      <trkpt lat="48.2086" lon="-3.10885">
        <ele>129.7</ele>
        <time>2015-07-12T14:16:59Z</time>
      </trkpt>
      <trkpt lat="48.20864" lon="-3.10872">
        <ele>129.5</ele>
        <time>2015-07-12T14:17:09Z</time>
      </trkpt>
      <trkpt lat="48.20868" lon="-3.10858">
        <ele>129.4</ele>
        <time>2015-07-12T14:17:17Z</time>
      </trkpt>
      <trkpt lat="48.2087" lon="-3.10844">
        <ele>129.4</ele>
        <time>2015-07-12T14:17:25Z</time>
      </trkpt>
      <trkpt lat="48.20873" lon="-3.1083">
        <ele>129</ele>
        <time>2015-07-12T14:17:36Z</time>
      </trkpt>
      <trkpt lat="48.20874" lon="-3.10817">
        <ele>128.7</ele>
        <time>2015-07-12T14:17:46Z</time>
      </trkpt>
      <trkpt lat="48.20871" lon="-3.10802">
        <ele>129.1</ele>
        <time>2015-07-12T14:17:59Z</time>
      </trkpt>
      <trkpt lat="48.20867" lon="-3.1079">
        <ele>129.3</ele>
        <time>2015-07-12T14:18:07Z</time>
      </trkpt>
      <trkpt lat="48.20861" lon="-3.10779">
        <ele>129.5</ele>
        <time>2015-07-12T14:18:15Z</time>
      </trkpt>
      <trkpt lat="48.20853" lon="-3.1077">
        <ele>129.5</ele>
        <time>2015-07-12T14:18:25Z</time>
      </trkpt>
      <trkpt lat="48.20852" lon="-3.10756">
        <ele>129.5</ele>
        <time>2015-07-12T14:18:32Z</time>
      </trkpt>
      <trkpt lat="48.20848" lon="-3.10742">
        <ele>129.4</ele>
        <time>2015-07-12T14:18:39Z</time>
      </trkpt>
      <trkpt lat="48.20845" lon="-3.1073">
        <ele>129.3</ele>
        <time>2015-07-12T14:18:46Z</time>
      </trkpt>
      <trkpt lat="48.20843" lon="-3.10715">
        <ele>129.2</ele>
        <time>2015-07-12T14:18:52Z</time>
      </trkpt>
      <trkpt lat="48.2084" lon="-3.10701">
        <ele>129.2</ele>
        <time>2015-07-12T14:19:00Z</time>
      </trkpt>
      <trkpt lat="48.20835" lon="-3.10688">
        <ele>129.2</ele>
        <time>2015-07-12T14:19:09Z</time>
      </trkpt>
      <trkpt lat="48.20827" lon="-3.10682">
        <ele>129.3</ele>
        <time>2015-07-12T14:19:16Z</time>
      </trkpt>
      <trkpt lat="48.20821" lon="-3.10673">
        <ele>129.1</ele>
        <time>2015-07-12T14:19:27Z</time>
      </trkpt>
      <trkpt lat="48.20812" lon="-3.10668">
        <ele>129</ele>
        <time>2015-07-12T14:19:35Z</time>
      </trkpt>
      <trkpt lat="48.20802" lon="-3.10666">
        <ele>128.9</ele>
        <time>2015-07-12T14:19:40Z</time>
      </trkpt>
      <trkpt lat="48.20793" lon="-3.10662">
        <ele>128.9</ele>
        <time>2015-07-12T14:19:52Z</time>
      </trkpt>
      <trkpt lat="48.20783" lon="-3.10661">
        <ele>128.9</ele>
        <time>2015-07-12T14:19:59Z</time>
      </trkpt>
      <trkpt lat="48.20773" lon="-3.10659">
        <ele>128.6</ele>
        <time>2015-07-12T14:20:10Z</time>
      </trkpt>
      <trkpt lat="48.2076" lon="-3.10658">
        <ele>128</ele>
        <time>2015-07-12T14:20:21Z</time>
      </trkpt>
      <trkpt lat="48.2075" lon="-3.10659">
        <ele>128.6</ele>
        <time>2015-07-12T14:20:29Z</time>
      </trkpt>
      <trkpt lat="48.20735" lon="-3.10663">
        <ele>129</ele>
        <time>2015-07-12T14:20:40Z</time>
      </trkpt>
      <trkpt lat="48.20722" lon="-3.10669">
        <ele>129</ele>
        <time>2015-07-12T14:20:48Z</time>
      </trkpt>
      <trkpt lat="48.20704" lon="-3.10691">
        <ele>129.7</ele>
        <time>2015-07-12T14:20:55Z</time>
      </trkpt>
      <trkpt lat="48.20695" lon="-3.10701">
        <ele>129.8</ele>
        <time>2015-07-12T14:20:58Z</time>
      </trkpt>
      <trkpt lat="48.20686" lon="-3.10707">
        <ele>129.8</ele>
        <time>2015-07-12T14:21:00Z</time>
      </trkpt>
      <trkpt lat="48.20677" lon="-3.10696">
        <ele>129</ele>
        <time>2015-07-12T14:21:11Z</time>
      </trkpt>
      <trkpt lat="48.20669" lon="-3.10689">
        <ele>129.9</ele>
        <time>2015-07-12T14:21:25Z</time>
      </trkpt>
      <trkpt lat="48.20664" lon="-3.107">
        <ele>129.2</ele>
        <time>2015-07-12T14:22:03Z</time>
      </trkpt>
      <trkpt lat="48.20659" lon="-3.10712">
        <ele>129</ele>
        <time>2015-07-12T14:22:20Z</time>
      </trkpt>
      <trkpt lat="48.20646" lon="-3.10709">
        <ele>129</ele>
        <time>2015-07-12T14:22:44Z</time>
      </trkpt>
      <trkpt lat="48.20637" lon="-3.1071">
        <ele>129.2</ele>
        <time>2015-07-12T14:22:50Z</time>
      </trkpt>
      <trkpt lat="48.20627" lon="-3.10712">
        <ele>129</ele>
        <time>2015-07-12T14:22:59Z</time>
      </trkpt>
      <trkpt lat="48.20621" lon="-3.107">
        <ele>129.5</ele>
        <time>2015-07-12T14:23:09Z</time>
      </trkpt>
      <trkpt lat="48.20621" lon="-3.10685">
        <ele>129.6</ele>
        <time>2015-07-12T14:23:16Z</time>
      </trkpt>
      <trkpt lat="48.20618" lon="-3.10673">
        <ele>129.7</ele>
        <time>2015-07-12T14:23:24Z</time>
      </trkpt>
      <trkpt lat="48.20609" lon="-3.10665">
        <ele>129.8</ele>
        <time>2015-07-12T14:23:35Z</time>
      </trkpt>
      <trkpt lat="48.206" lon="-3.10659">
        <ele>129.9</ele>
        <time>2015-07-12T14:23:43Z</time>
      </trkpt>
      <trkpt lat="48.2059" lon="-3.10654">
        <ele>129</ele>
        <time>2015-07-12T14:23:53Z</time>
      </trkpt>
      <trkpt lat="48.20583" lon="-3.10646">
        <ele>129.8</ele>
        <time>2015-07-12T14:24:01Z</time>
      </trkpt>
      <trkpt lat="48.20577" lon="-3.10635">
        <ele>129.6</ele>
        <time>2015-07-12T14:24:08Z</time>
      </trkpt>
      <trkpt lat="48.20568" lon="-3.10626">
        <ele>129.5</ele>
        <time>2015-07-12T14:24:17Z</time>
      </trkpt>
      <trkpt lat="48.20559" lon="-3.1062">
        <ele>129</ele>
        <time>2015-07-12T14:24:28Z</time>
      </trkpt>
      <trkpt lat="48.20552" lon="-3.1061">
        <ele>129</ele>
        <time>2015-07-12T14:24:37Z</time>
      </trkpt>
      <trkpt lat="48.20548" lon="-3.10597">
        <ele>130.1</ele>
        <time>2015-07-12T14:24:47Z</time>
      </trkpt>
      <trkpt lat="48.20549" lon="-3.10584">
        <ele>130.2</ele>
        <time>2015-07-12T14:24:54Z</time>
      </trkpt>
      <trkpt lat="48.20551" lon="-3.10569">
        <ele>130.1</ele>
        <time>2015-07-12T14:25:06Z</time>
      </trkpt>
      <trkpt lat="48.20554" lon="-3.10557">
        <ele>130.1</ele>
        <time>2015-07-12T14:25:12Z</time>
      </trkpt>
      <trkpt lat="48.20557" lon="-3.10542">
        <ele>130.1</ele>
        <time>2015-07-12T14:25:20Z</time>
      </trkpt>
      <trkpt lat="48.2056" lon="-3.10529">
        <ele>130</ele>
        <time>2015-07-12T14:25:27Z</time>
      </trkpt>
      <trkpt lat="48.20564" lon="-3.10516">
        <ele>130</ele>
        <time>2015-07-12T14:25:33Z</time>
      </trkpt>
      <trkpt lat="48.20565" lon="-3.10502">
        <ele>130</ele>
        <time>2015-07-12T14:25:39Z</time>
      </trkpt>
      <trkpt lat="48.20566" lon="-3.10487">
        <ele>130</ele>
        <time>2015-07-12T14:25:47Z</time>
      </trkpt>
      <trkpt lat="48.20569" lon="-3.10472">
        <ele>130</ele>
        <time>2015-07-12T14:25:55Z</time>
      </trkpt>
      <trkpt lat="48.20569" lon="-3.10458">
        <ele>129.8</ele>
        <time>2015-07-12T14:26:02Z</time>
      </trkpt>
      <trkpt lat="48.2057" lon="-3.10444">
        <ele>129.7</ele>
        <time>2015-07-12T14:26:13Z</time>
      </trkpt>
      <trkpt lat="48.2057" lon="-3.1043">
        <ele>129.6</ele>
        <time>2015-07-12T14:26:22Z</time>
      </trkpt>
      <trkpt lat="48.20578" lon="-3.10423">
        <ele>129</ele>
        <time>2015-07-12T14:26:44Z</time>
      </trkpt>
      <trkpt lat="48.20582" lon="-3.10409">
        <ele>128.9</ele>
        <time>2015-07-12T14:26:50Z</time>
      </trkpt>
      <trkpt lat="48.20583" lon="-3.10395">
        <ele>128.8</ele>
        <time>2015-07-12T14:26:58Z</time>
      </trkpt>
      <trkpt lat="48.20583" lon="-3.10381">
        <ele>128.5</ele>
        <time>2015-07-12T14:27:07Z</time>
      </trkpt>
      <trkpt lat="48.20583" lon="-3.10367">
        <ele>128.2</ele>
        <time>2015-07-12T14:27:13Z</time>
      </trkpt>
      <trkpt lat="48.20582" lon="-3.10351">
        <ele>127.8</ele>
        <time>2015-07-12T14:27:21Z</time>
      </trkpt>
      <trkpt lat="48.20584" lon="-3.10337">
        <ele>127.6</ele>
        <time>2015-07-12T14:27:30Z</time>
      </trkpt>
      <trkpt lat="48.20582" lon="-3.10325">
        <ele>127.3</ele>
        <time>2015-07-12T14:27:36Z</time>
      </trkpt>
      <trkpt lat="48.20585" lon="-3.10312">
        <ele>126.9</ele>
        <time>2015-07-12T14:27:44Z</time>
      </trkpt>
      <trkpt lat="48.20586" lon="-3.10297">
        <ele>126.9</ele>
        <time>2015-07-12T14:27:52Z</time>
      </trkpt>
      <trkpt lat="48.20586" lon="-3.10282">
        <ele>126.7</ele>
        <time>2015-07-12T14:28:01Z</time>
      </trkpt>
      <trkpt lat="48.20588" lon="-3.10268">
        <ele>126.5</ele>
        <time>2015-07-12T14:28:09Z</time>
      </trkpt>
      <trkpt lat="48.2059" lon="-3.10255">
        <ele>126.4</ele>
        <time>2015-07-12T14:28:17Z</time>
      </trkpt>
      <trkpt lat="48.20591" lon="-3.10241">
        <ele>126.5</ele>
        <time>2015-07-12T14:28:26Z</time>
      </trkpt>
      <trkpt lat="48.20594" lon="-3.10228">
        <ele>126.6</ele>
        <time>2015-07-12T14:28:33Z</time>
      </trkpt>
      <trkpt lat="48.20595" lon="-3.10212">
        <ele>126.7</ele>
        <time>2015-07-12T14:28:41Z</time>
      </trkpt>
      <trkpt lat="48.20598" lon="-3.10197">
        <ele>126.8</ele>
        <time>2015-07-12T14:28:49Z</time>
      </trkpt>
      <trkpt lat="48.20601" lon="-3.10182">
        <ele>126.9</ele>
        <time>2015-07-12T14:28:57Z</time>
      </trkpt>
      <trkpt lat="48.20605" lon="-3.1017">
        <ele>126.9</ele>
        <time>2015-07-12T14:29:06Z</time>
      </trkpt>
      <trkpt lat="48.20607" lon="-3.10156">
        <ele>127</ele>
        <time>2015-07-12T14:29:16Z</time>
      </trkpt>
      <trkpt lat="48.20603" lon="-3.10144">
        <ele>127</ele>
        <time>2015-07-12T14:29:27Z</time>
      </trkpt>
      <trkpt lat="48.20606" lon="-3.10129">
        <ele>127.1</ele>
        <time>2015-07-12T14:29:36Z</time>
      </trkpt>
      <trkpt lat="48.20609" lon="-3.10115">
        <ele>127.2</ele>
        <time>2015-07-12T14:29:45Z</time>
      </trkpt>
      <trkpt lat="48.20608" lon="-3.101">
        <ele>127.2</ele>
        <time>2015-07-12T14:29:59Z</time>
      </trkpt>
      <trkpt lat="48.20616" lon="-3.10106">
        <ele>127.2</ele>
        <time>2015-07-12T14:30:38Z</time>
      </trkpt>
      <trkpt lat="48.20625" lon="-3.10099">
        <ele>127.4</ele>
        <time>2015-07-12T14:30:45Z</time>
      </trkpt>
      <trkpt lat="48.2063" lon="-3.10086">
        <ele>127.7</ele>
        <time>2015-07-12T14:30:54Z</time>
      </trkpt>
      <trkpt lat="48.20633" lon="-3.10072">
        <ele>127.7</ele>
        <time>2015-07-12T14:31:02Z</time>
      </trkpt>
      <trkpt lat="48.20636" lon="-3.10059">
        <ele>127.6</ele>
        <time>2015-07-12T14:31:09Z</time>
      </trkpt>
      <trkpt lat="48.20638" lon="-3.10044">
        <ele>127.3</ele>
        <time>2015-07-12T14:31:18Z</time>
      </trkpt>
      <trkpt lat="48.20643" lon="-3.1003">
        <ele>127</ele>
        <time>2015-07-12T14:31:27Z</time>
      </trkpt>
      <trkpt lat="48.20646" lon="-3.10017">
        <ele>126.9</ele>
        <time>2015-07-12T14:31:33Z</time>
      </trkpt>
      <trkpt lat="48.20648" lon="-3.10003">
        <ele>126.8</ele>
        <time>2015-07-12T14:31:41Z</time>
      </trkpt>
      <trkpt lat="48.20649" lon="-3.09989">
        <ele>126.8</ele>
        <time>2015-07-12T14:31:48Z</time>
      </trkpt>
      <trkpt lat="48.2065" lon="-3.09975">
        <ele>126.7</ele>
        <time>2015-07-12T14:31:57Z</time>
      </trkpt>
      <trkpt lat="48.2065" lon="-3.0996">
        <ele>126.3</ele>
        <time>2015-07-12T14:32:06Z</time>
      </trkpt>
      <trkpt lat="48.20654" lon="-3.09945">
        <ele>126.2</ele>
        <time>2015-07-12T14:32:14Z</time>
      </trkpt>
      <trkpt lat="48.20656" lon="-3.0993">
        <ele>126.3</ele>
        <time>2015-07-12T14:32:22Z</time>
      </trkpt>
      <trkpt lat="48.20657" lon="-3.09914">
        <ele>126.5</ele>
        <time>2015-07-12T14:32:34Z</time>
      </trkpt>
      <trkpt lat="48.20658" lon="-3.099">
        <ele>126.3</ele>
        <time>2015-07-12T14:32:42Z</time>
      </trkpt>
      <trkpt lat="48.20658" lon="-3.09885">
        <ele>126.1</ele>
        <time>2015-07-12T14:32:51Z</time>
      </trkpt>
      <trkpt lat="48.2066" lon="-3.09872">
        <ele>126</ele>
        <time>2015-07-12T14:32:59Z</time>
      </trkpt>
      <trkpt lat="48.20662" lon="-3.09858">
        <ele>126</ele>
        <time>2015-07-12T14:33:07Z</time>
      </trkpt>
      <trkpt lat="48.20662" lon="-3.09844">
        <ele>126</ele>
        <time>2015-07-12T14:33:15Z</time>
      </trkpt>
      <trkpt lat="48.20663" lon="-3.09828">
        <ele>126</ele>
        <time>2015-07-12T14:33:23Z</time>
      </trkpt>
      <trkpt lat="48.20662" lon="-3.09813">
        <ele>125.9</ele>
        <time>2015-07-12T14:33:31Z</time>
      </trkpt>
      <trkpt lat="48.20662" lon="-3.09798">
        <ele>125.7</ele>
        <time>2015-07-12T14:33:39Z</time>
      </trkpt>
      <trkpt lat="48.20663" lon="-3.09784">
        <ele>125.7</ele>
        <time>2015-07-12T14:33:47Z</time>
      </trkpt>
      <trkpt lat="48.20662" lon="-3.09769">
        <ele>125.5</ele>
        <time>2015-07-12T14:33:55Z</time>
      </trkpt>
      <trkpt lat="48.20662" lon="-3.09755">
        <ele>125.4</ele>
        <time>2015-07-12T14:34:03Z</time>
      </trkpt>
      <trkpt lat="48.20661" lon="-3.09741">
        <ele>125.3</ele>
        <time>2015-07-12T14:34:12Z</time>
      </trkpt>
      <trkpt lat="48.2066" lon="-3.09725">
        <ele>125.5</ele>
        <time>2015-07-12T14:34:22Z</time>
      </trkpt>
      <trkpt lat="48.20653" lon="-3.09716">
        <ele>125.5</ele>
        <time>2015-07-12T14:34:31Z</time>
      </trkpt>
      <trkpt lat="48.20645" lon="-3.09707">
        <ele>125.4</ele>
        <time>2015-07-12T14:34:39Z</time>
      </trkpt>
      <trkpt lat="48.20637" lon="-3.09696">
        <ele>125</ele>
        <time>2015-07-12T14:34:50Z</time>
      </trkpt>
      <trkpt lat="48.20631" lon="-3.09685">
        <ele>124.9</ele>
        <time>2015-07-12T14:34:58Z</time>
      </trkpt>
      <trkpt lat="48.20624" lon="-3.09675">
        <ele>124.6</ele>
        <time>2015-07-12T14:35:06Z</time>
      </trkpt>
      <trkpt lat="48.20622" lon="-3.09662">
        <ele>124.4</ele>
        <time>2015-07-12T14:35:12Z</time>
      </trkpt>
      <trkpt lat="48.2062" lon="-3.09648">
        <ele>124.3</ele>
        <time>2015-07-12T14:35:20Z</time>
      </trkpt>
      <trkpt lat="48.20616" lon="-3.09636">
        <ele>124.3</ele>
        <time>2015-07-12T14:35:29Z</time>
      </trkpt>
      <trkpt lat="48.20611" lon="-3.09623">
        <ele>124.4</ele>
        <time>2015-07-12T14:35:37Z</time>
      </trkpt>
      <trkpt lat="48.20603" lon="-3.09613">
        <ele>124.6</ele>
        <time>2015-07-12T14:35:45Z</time>
      </trkpt>
      <trkpt lat="48.20597" lon="-3.09599">
        <ele>124.7</ele>
        <time>2015-07-12T14:35:53Z</time>
      </trkpt>
      <trkpt lat="48.20592" lon="-3.09586">
        <ele>124.8</ele>
        <time>2015-07-12T14:36:02Z</time>
      </trkpt>
      <trkpt lat="48.20586" lon="-3.09577">
        <ele>124.6</ele>
        <time>2015-07-12T14:36:29Z</time>
      </trkpt>
      <trkpt lat="48.20576" lon="-3.09572">
        <ele>124.5</ele>
        <time>2015-07-12T14:36:41Z</time>
      </trkpt>
      <trkpt lat="48.20568" lon="-3.09566">
        <ele>124.4</ele>
        <time>2015-07-12T14:36:53Z</time>
      </trkpt>
      <trkpt lat="48.20561" lon="-3.09558">
        <ele>124.4</ele>
        <time>2015-07-12T14:37:17Z</time>
      </trkpt>
      <trkpt lat="48.20564" lon="-3.09545">
        <ele>124.4</ele>
        <time>2015-07-12T14:37:45Z</time>
      </trkpt>
      <trkpt lat="48.20561" lon="-3.09531">
        <ele>124.3</ele>
        <time>2015-07-12T14:37:56Z</time>
      </trkpt>
      <trkpt lat="48.20558" lon="-3.09518">
        <ele>124.4</ele>
        <time>2015-07-12T14:38:05Z</time>
      </trkpt>
      <trkpt lat="48.20552" lon="-3.09503">
        <ele>124</ele>
        <time>2015-07-12T14:38:17Z</time>
      </trkpt>
      <trkpt lat="48.20546" lon="-3.09491">
        <ele>124</ele>
        <time>2015-07-12T14:38:28Z</time>
      </trkpt>
      <trkpt lat="48.20537" lon="-3.09485">
        <ele>124</ele>
        <time>2015-07-12T14:38:36Z</time>
      </trkpt>
      <trkpt lat="48.20528" lon="-3.09479">
        <ele>124.3</ele>
        <time>2015-07-12T14:38:47Z</time>
      </trkpt>
      <trkpt lat="48.2052" lon="-3.09472">
        <ele>124.3</ele>
        <time>2015-07-12T14:38:53Z</time>
      </trkpt>
      <trkpt lat="48.20507" lon="-3.09467">
        <ele>124</ele>
        <time>2015-07-12T14:39:03Z</time>
      </trkpt>
      <trkpt lat="48.20496" lon="-3.09459">
        <ele>124.2</ele>
        <time>2015-07-12T14:39:14Z</time>
      </trkpt>
      <trkpt lat="48.20491" lon="-3.09447">
        <ele>124.2</ele>
        <time>2015-07-12T14:39:25Z</time>
      </trkpt>
      <trkpt lat="48.20483" lon="-3.09441">
        <ele>124.2</ele>
        <time>2015-07-12T14:39:32Z</time>
      </trkpt>
      <trkpt lat="48.20473" lon="-3.09445">
        <ele>124</ele>
        <time>2015-07-12T14:39:41Z</time>
      </trkpt>
      <trkpt lat="48.20464" lon="-3.09442">
        <ele>124</ele>
        <time>2015-07-12T14:39:52Z</time>
      </trkpt>
      <trkpt lat="48.20452" lon="-3.09434">
        <ele>123</ele>
        <time>2015-07-12T14:40:03Z</time>
      </trkpt>
      <trkpt lat="48.20441" lon="-3.09431">
        <ele>123</ele>
        <time>2015-07-12T14:40:15Z</time>
      </trkpt>
      <trkpt lat="48.2043" lon="-3.09419">
        <ele>122</ele>
        <time>2015-07-12T14:40:31Z</time>
      </trkpt>
      <trkpt lat="48.20421" lon="-3.09418">
        <ele>122</ele>
        <time>2015-07-12T14:40:39Z</time>
      </trkpt>
      <trkpt lat="48.20408" lon="-3.09417">
        <ele>122</ele>
        <time>2015-07-12T14:40:47Z</time>
      </trkpt>
      <trkpt lat="48.20396" lon="-3.09415">
        <ele>122</ele>
        <time>2015-07-12T14:40:59Z</time>
      </trkpt>
      <trkpt lat="48.20386" lon="-3.09415">
        <ele>122</ele>
        <time>2015-07-12T14:41:07Z</time>
      </trkpt>
      <trkpt lat="48.20375" lon="-3.09417">
        <ele>122</ele>
        <time>2015-07-12T14:41:15Z</time>
      </trkpt>
      <trkpt lat="48.20364" lon="-3.09418">
        <ele>122</ele>
        <time>2015-07-12T14:41:23Z</time>
      </trkpt>
      <trkpt lat="48.20351" lon="-3.09427">
        <ele>122</ele>
        <time>2015-07-12T14:41:31Z</time>
      </trkpt>
      <trkpt lat="48.20336" lon="-3.09439">
        <ele>122.9</ele>
        <time>2015-07-12T14:41:34Z</time>
      </trkpt>
      <trkpt lat="48.20328" lon="-3.09447">
        <ele>122.9</ele>
        <time>2015-07-12T14:41:37Z</time>
      </trkpt>
      <trkpt lat="48.20319" lon="-3.09455">
        <ele>122</ele>
        <time>2015-07-12T14:41:39Z</time>
      </trkpt>
      <trkpt lat="48.20308" lon="-3.09463">
        <ele>122.9</ele>
        <time>2015-07-12T14:41:42Z</time>
      </trkpt>
      <trkpt lat="48.20301" lon="-3.09471">
        <ele>122.9</ele>
        <time>2015-07-12T14:41:44Z</time>
      </trkpt>
      <trkpt lat="48.20287" lon="-3.09481">
        <ele>122.9</ele>
        <time>2015-07-12T14:41:46Z</time>
      </trkpt>
      <trkpt lat="48.20277" lon="-3.0949">
        <ele>122.9</ele>
        <time>2015-07-12T14:41:48Z</time>
      </trkpt>
      <trkpt lat="48.20268" lon="-3.09498">
        <ele>122.9</ele>
        <time>2015-07-12T14:41:51Z</time>
      </trkpt>
      <trkpt lat="48.20257" lon="-3.09506">
        <ele>122.7</ele>
        <time>2015-07-12T14:41:55Z</time>
      </trkpt>
      <trkpt lat="48.20249" lon="-3.09514">
        <ele>122.6</ele>
        <time>2015-07-12T14:41:58Z</time>
      </trkpt>
      <trkpt lat="48.20239" lon="-3.09519">
        <ele>122.6</ele>
        <time>2015-07-12T14:42:01Z</time>
      </trkpt>
      <trkpt lat="48.20229" lon="-3.09523">
        <ele>122.6</ele>
        <time>2015-07-12T14:42:06Z</time>
      </trkpt>
      <trkpt lat="48.20219" lon="-3.09527">
        <ele>122.8</ele>
        <time>2015-07-12T14:42:12Z</time>
      </trkpt>
      <trkpt lat="48.2021" lon="-3.09525">
        <ele>123.1</ele>
        <time>2015-07-12T14:42:18Z</time>
      </trkpt>
      <trkpt lat="48.20209" lon="-3.09507">
        <ele>123.3</ele>
        <time>2015-07-12T14:42:23Z</time>
      </trkpt>
      <trkpt lat="48.20212" lon="-3.09494">
        <ele>123.4</ele>
        <time>2015-07-12T14:42:27Z</time>
      </trkpt>
      <trkpt lat="48.20223" lon="-3.09486">
        <ele>123.5</ele>
        <time>2015-07-12T14:42:35Z</time>
      </trkpt>
      <trkpt lat="48.20232" lon="-3.09482">
        <ele>123.4</ele>
        <time>2015-07-12T14:42:43Z</time>
      </trkpt>
      <trkpt lat="48.20241" lon="-3.09479">
        <ele>123.4</ele>
        <time>2015-07-12T14:42:46Z</time>
      </trkpt>
      <trkpt lat="48.2025" lon="-3.09473">
        <ele>123.4</ele>
        <time>2015-07-12T14:42:54Z</time>
      </trkpt>
      <trkpt lat="48.20259" lon="-3.0947">
        <ele>123.4</ele>
        <time>2015-07-12T14:43:12Z</time>
      </trkpt>
      <trkpt lat="48.20268" lon="-3.09467">
        <ele>123.1</ele>
        <time>2015-07-12T14:44:00Z</time>
      </trkpt>
      <trkpt lat="48.2026" lon="-3.09459">
        <ele>123.1</ele>
        <time>2015-07-12T14:44:17Z</time>
      </trkpt>
      <trkpt lat="48.20249" lon="-3.0946">
        <ele>122.8</ele>
        <time>2015-07-12T14:44:26Z</time>
      </trkpt>
      <trkpt lat="48.2024" lon="-3.09454">
        <ele>122.6</ele>
        <time>2015-07-12T14:44:34Z</time>
      </trkpt>
      <trkpt lat="48.20232" lon="-3.09445">
        <ele>121.9</ele>
        <time>2015-07-12T14:44:45Z</time>
      </trkpt>
      <trkpt lat="48.20227" lon="-3.09432">
        <ele>121.7</ele>
        <time>2015-07-12T14:44:54Z</time>
      </trkpt>
      <trkpt lat="48.20228" lon="-3.09418">
        <ele>121.9</ele>
        <time>2015-07-12T14:45:01Z</time>
      </trkpt>
      <trkpt lat="48.20227" lon="-3.09404">
        <ele>122</ele>
        <time>2015-07-12T14:45:11Z</time>
      </trkpt>
      <trkpt lat="48.20226" lon="-3.09389">
        <ele>121.9</ele>
        <time>2015-07-12T14:45:20Z</time>
      </trkpt>
      <trkpt lat="48.20227" lon="-3.09375">
        <ele>122</ele>
        <time>2015-07-12T14:45:30Z</time>
      </trkpt>
      <trkpt lat="48.20228" lon="-3.09361">
        <ele>122</ele>
        <time>2015-07-12T14:45:40Z</time>
      </trkpt>
      <trkpt lat="48.20231" lon="-3.09348">
        <ele>122.3</ele>
        <time>2015-07-12T14:45:49Z</time>
      </trkpt>
      <trkpt lat="48.20232" lon="-3.09334">
        <ele>122.3</ele>
        <time>2015-07-12T14:45:58Z</time>
      </trkpt>
      <trkpt lat="48.20232" lon="-3.09319">
        <ele>122.3</ele>
        <time>2015-07-12T14:46:08Z</time>
      </trkpt>
      <trkpt lat="48.20233" lon="-3.09305">
        <ele>122.2</ele>
        <time>2015-07-12T14:46:19Z</time>
      </trkpt>
      <trkpt lat="48.20234" lon="-3.0929">
        <ele>122.2</ele>
        <time>2015-07-12T14:46:30Z</time>
      </trkpt>
      <trkpt lat="48.20237" lon="-3.09277">
        <ele>122.4</ele>
        <time>2015-07-12T14:46:40Z</time>
      </trkpt>
      <trkpt lat="48.20241" lon="-3.09264">
        <ele>122.4</ele>
        <time>2015-07-12T14:46:48Z</time>
      </trkpt>
      <trkpt lat="48.20243" lon="-3.09251">
        <ele>122.3</ele>
        <time>2015-07-12T14:46:59Z</time>
      </trkpt>
      <trkpt lat="48.20245" lon="-3.09237">
        <ele>122.6</ele>
        <time>2015-07-12T14:47:09Z</time>
      </trkpt>
      <trkpt lat="48.20247" lon="-3.09223">
        <ele>122.9</ele>
        <time>2015-07-12T14:47:33Z</time>
      </trkpt>
      <trkpt lat="48.20244" lon="-3.09209">
        <ele>122.9</ele>
        <time>2015-07-12T14:47:43Z</time>
      </trkpt>
      <trkpt lat="48.20236" lon="-3.09203">
        <ele>121.8</ele>
        <time>2015-07-12T14:48:51Z</time>
      </trkpt>
      <trkpt lat="48.20245" lon="-3.09206">
        <ele>121.3</ele>
        <time>2015-07-12T14:49:26Z</time>
      </trkpt>
      <trkpt lat="48.20249" lon="-3.09194">
        <ele>121.3</ele>
        <time>2015-07-12T14:49:35Z</time>
      </trkpt>
      <trkpt lat="48.20251" lon="-3.0918">
        <ele>121.1</ele>
        <time>2015-07-12T14:49:44Z</time>
      </trkpt>
      <trkpt lat="48.20259" lon="-3.0917">
        <ele>120.7</ele>
        <time>2015-07-12T14:50:05Z</time>
      </trkpt>
      <trkpt lat="48.20261" lon="-3.09155">
        <ele>120.5</ele>
        <time>2015-07-12T14:50:16Z</time>
      </trkpt>
      <trkpt lat="48.20265" lon="-3.09143">
        <ele>120.3</ele>
        <time>2015-07-12T14:50:24Z</time>
      </trkpt>
      <trkpt lat="48.2027" lon="-3.09131">
        <ele>120.2</ele>
        <time>2015-07-12T14:50:32Z</time>
      </trkpt>
      <trkpt lat="48.20274" lon="-3.09117">
        <ele>120.1</ele>
        <time>2015-07-12T14:50:42Z</time>
      </trkpt>
      <trkpt lat="48.20279" lon="-3.09104">
        <ele>120.1</ele>
        <time>2015-07-12T14:50:50Z</time>
      </trkpt>
      <trkpt lat="48.20284" lon="-3.09092">
        <ele>120.1</ele>
        <time>2015-07-12T14:50:58Z</time>
      </trkpt>
      <trkpt lat="48.20288" lon="-3.0908">
        <ele>120.1</ele>
        <time>2015-07-12T14:51:07Z</time>
      </trkpt>
      <trkpt lat="48.20293" lon="-3.09068">
        <ele>120.3</ele>
        <time>2015-07-12T14:51:18Z</time>
      </trkpt>
      <trkpt lat="48.20298" lon="-3.09056">
        <ele>120.1</ele>
        <time>2015-07-12T14:51:27Z</time>
      </trkpt>
      <trkpt lat="48.20304" lon="-3.09043">
        <ele>119.9</ele>
        <time>2015-07-12T14:51:35Z</time>
      </trkpt>
      <trkpt lat="48.20309" lon="-3.09031">
        <ele>119.6</ele>
        <time>2015-07-12T14:51:42Z</time>
      </trkpt>
      <trkpt lat="48.20315" lon="-3.09019">
        <ele>119.5</ele>
        <time>2015-07-12T14:51:51Z</time>
      </trkpt>
      <trkpt lat="48.20319" lon="-3.09006">
        <ele>119.3</ele>
        <time>2015-07-12T14:51:59Z</time>
      </trkpt>
      <trkpt lat="48.20324" lon="-3.08994">
        <ele>118.8</ele>
        <time>2015-07-12T14:52:10Z</time>
      </trkpt>
      <trkpt lat="48.20331" lon="-3.08983">
        <ele>118.6</ele>
        <time>2015-07-12T14:52:18Z</time>
      </trkpt>
      <trkpt lat="48.20336" lon="-3.08969">
        <ele>118.5</ele>
        <time>2015-07-12T14:52:26Z</time>
      </trkpt>
      <trkpt lat="48.20339" lon="-3.08956">
        <ele>117.7</ele>
        <time>2015-07-12T14:52:36Z</time>
      </trkpt>
      <trkpt lat="48.20341" lon="-3.08942">
        <ele>117.3</ele>
        <time>2015-07-12T14:52:45Z</time>
      </trkpt>
      <trkpt lat="48.20346" lon="-3.0893">
        <ele>117.3</ele>
        <time>2015-07-12T14:52:57Z</time>
      </trkpt>
      <trkpt lat="48.20349" lon="-3.08915">
        <ele>116.6</ele>
        <time>2015-07-12T14:53:07Z</time>
      </trkpt>
      <trkpt lat="48.20353" lon="-3.08901">
        <ele>116.2</ele>
        <time>2015-07-12T14:53:18Z</time>
      </trkpt>
      <trkpt lat="48.20356" lon="-3.08886">
        <ele>116.1</ele>
        <time>2015-07-12T14:53:28Z</time>
      </trkpt>
      <trkpt lat="48.20358" lon="-3.08873">
        <ele>116.3</ele>
        <time>2015-07-12T14:53:35Z</time>
      </trkpt>
      <trkpt lat="48.2036" lon="-3.08859">
        <ele>116.2</ele>
        <time>2015-07-12T14:53:44Z</time>
      </trkpt>
      <trkpt lat="48.20364" lon="-3.08846">
        <ele>116.1</ele>
        <time>2015-07-12T14:53:52Z</time>
      </trkpt>
      <trkpt lat="48.20368" lon="-3.08833">
        <ele>115.6</ele>
        <time>2015-07-12T14:54:00Z</time>
      </trkpt>
      <trkpt lat="48.2037" lon="-3.0882">
        <ele>115.6</ele>
        <time>2015-07-12T14:54:09Z</time>
      </trkpt>
      <trkpt lat="48.20371" lon="-3.08806">
        <ele>115.5</ele>
        <time>2015-07-12T14:54:18Z</time>
      </trkpt>
      <trkpt lat="48.20372" lon="-3.08792">
        <ele>115.4</ele>
        <time>2015-07-12T14:54:26Z</time>
      </trkpt>
      <trkpt lat="48.2037" lon="-3.08778">
        <ele>115.5</ele>
        <time>2015-07-12T14:54:34Z</time>
      </trkpt>
      <trkpt lat="48.20369" lon="-3.08764">
        <ele>115.5</ele>
        <time>2015-07-12T14:54:41Z</time>
      </trkpt>
      <trkpt lat="48.20371" lon="-3.08748">
        <ele>115.5</ele>
        <time>2015-07-12T14:54:49Z</time>
      </trkpt>
      <trkpt lat="48.20375" lon="-3.08733">
        <ele>115.6</ele>
        <time>2015-07-12T14:54:57Z</time>
      </trkpt>
      <trkpt lat="48.20374" lon="-3.08719">
        <ele>115.4</ele>
        <time>2015-07-12T14:55:08Z</time>
      </trkpt>
      <trkpt lat="48.20376" lon="-3.08706">
        <ele>115.2</ele>
        <time>2015-07-12T14:55:17Z</time>
      </trkpt>
      <trkpt lat="48.20381" lon="-3.08693">
        <ele>115.2</ele>
        <time>2015-07-12T14:55:26Z</time>
      </trkpt>
      <trkpt lat="48.20382" lon="-3.08679">
        <ele>115.3</ele>
        <time>2015-07-12T14:55:36Z</time>
      </trkpt>
      <trkpt lat="48.20381" lon="-3.08665">
        <ele>115.3</ele>
        <time>2015-07-12T14:57:19Z</time>
      </trkpt>
      <trkpt lat="48.20385" lon="-3.08652">
        <ele>115.5</ele>
        <time>2015-07-12T14:57:27Z</time>
      </trkpt>
      <trkpt lat="48.20387" lon="-3.08637">
        <ele>115.7</ele>
        <time>2015-07-12T14:57:38Z</time>
      </trkpt>
      <trkpt lat="48.20391" lon="-3.08625">
        <ele>115.6</ele>
        <time>2015-07-12T14:57:46Z</time>
      </trkpt>
      <trkpt lat="48.20395" lon="-3.08611">
        <ele>115.4</ele>
        <time>2015-07-12T14:57:55Z</time>
      </trkpt>
      <trkpt lat="48.20399" lon="-3.08598">
        <ele>115.2</ele>
        <time>2015-07-12T14:58:03Z</time>
      </trkpt>
      <trkpt lat="48.20405" lon="-3.08586">
        <ele>114.7</ele>
        <time>2015-07-12T14:58:13Z</time>
      </trkpt>
      <trkpt lat="48.20412" lon="-3.08578">
        <ele>114.4</ele>
        <time>2015-07-12T14:58:21Z</time>
      </trkpt>
      <trkpt lat="48.2042" lon="-3.08568">
        <ele>113.8</ele>
        <time>2015-07-12T14:58:31Z</time>
      </trkpt>
      <trkpt lat="48.20429" lon="-3.08565">
        <ele>113.5</ele>
        <time>2015-07-12T14:58:38Z</time>
      </trkpt>
      <trkpt lat="48.20438" lon="-3.0856">
        <ele>113.1</ele>
        <time>2015-07-12T14:58:46Z</time>
      </trkpt>
      <trkpt lat="48.20448" lon="-3.08556">
        <ele>113</ele>
        <time>2015-07-12T14:58:55Z</time>
      </trkpt>
      <trkpt lat="48.20457" lon="-3.08551">
        <ele>113</ele>
        <time>2015-07-12T14:59:03Z</time>
      </trkpt>
      <trkpt lat="48.20467" lon="-3.08546">
        <ele>113</ele>
        <time>2015-07-12T14:59:11Z</time>
      </trkpt>
      <trkpt lat="48.20475" lon="-3.08543">
        <ele>113</ele>
        <time>2015-07-12T14:59:19Z</time>
      </trkpt>
      <trkpt lat="48.20485" lon="-3.08539">
        <ele>112.8</ele>
        <time>2015-07-12T14:59:27Z</time>
      </trkpt>
      <trkpt lat="48.20494" lon="-3.08533">
        <ele>112.6</ele>
        <time>2015-07-12T14:59:36Z</time>
      </trkpt>
      <trkpt lat="48.20504" lon="-3.0853">
        <ele>112.7</ele>
        <time>2015-07-12T14:59:45Z</time>
      </trkpt>
      <trkpt lat="48.20513" lon="-3.08532">
        <ele>112.9</ele>
        <time>2015-07-12T14:59:53Z</time>
      </trkpt>
      <trkpt lat="48.20522" lon="-3.08536">
        <ele>113.2</ele>
        <time>2015-07-12T15:00:01Z</time>
      </trkpt>
      <trkpt lat="48.20531" lon="-3.0854">
        <ele>113.5</ele>
        <time>2015-07-12T15:00:10Z</time>
      </trkpt>
      <trkpt lat="48.2054" lon="-3.08544">
        <ele>113.6</ele>
        <time>2015-07-12T15:00:19Z</time>
      </trkpt>
      <trkpt lat="48.20548" lon="-3.08549">
        <ele>113.7</ele>
        <time>2015-07-12T15:00:29Z</time>
      </trkpt>
      <trkpt lat="48.20557" lon="-3.08553">
        <ele>113.7</ele>
        <time>2015-07-12T15:00:39Z</time>
      </trkpt>
      <trkpt lat="48.20564" lon="-3.08562">
        <ele>113.8</ele>
        <time>2015-07-12T15:00:53Z</time>
      </trkpt>
      <trkpt lat="48.20574" lon="-3.08564">
        <ele>113.8</ele>
        <time>2015-07-12T15:01:43Z</time>
      </trkpt>
      <trkpt lat="48.20583" lon="-3.08569">
        <ele>113.8</ele>
        <time>2015-07-12T15:01:57Z</time>
      </trkpt>
      <trkpt lat="48.20594" lon="-3.0857">
        <ele>114.4</ele>
        <time>2015-07-12T15:02:43Z</time>
      </trkpt>
      <trkpt lat="48.20602" lon="-3.08576">
        <ele>114.3</ele>
        <time>2015-07-12T15:02:58Z</time>
      </trkpt>
      <trkpt lat="48.2061" lon="-3.08582">
        <ele>114.2</ele>
        <time>2015-07-12T15:03:07Z</time>
      </trkpt>
      <trkpt lat="48.20618" lon="-3.08589">
        <ele>114.2</ele>
        <time>2015-07-12T15:03:15Z</time>
      </trkpt>
      <trkpt lat="48.20627" lon="-3.08593">
        <ele>114</ele>
        <time>2015-07-12T15:03:25Z</time>
      </trkpt>
      <trkpt lat="48.20637" lon="-3.08595">
        <ele>113.9</ele>
        <time>2015-07-12T15:03:34Z</time>
      </trkpt>
      <trkpt lat="48.20646" lon="-3.08598">
        <ele>113.8</ele>
        <time>2015-07-12T15:03:42Z</time>
      </trkpt>
      <trkpt lat="48.20655" lon="-3.08601">
        <ele>113.8</ele>
        <time>2015-07-12T15:03:50Z</time>
      </trkpt>
      <trkpt lat="48.20664" lon="-3.08605">
        <ele>113.6</ele>
        <time>2015-07-12T15:03:58Z</time>
      </trkpt>
      <trkpt lat="48.20674" lon="-3.08607">
        <ele>113.4</ele>
        <time>2015-07-12T15:04:08Z</time>
      </trkpt>
      <trkpt lat="48.20683" lon="-3.0861">
        <ele>113.1</ele>
        <time>2015-07-12T15:04:18Z</time>
      </trkpt>
      <trkpt lat="48.20694" lon="-3.0861">
        <ele>112.9</ele>
        <time>2015-07-12T15:04:27Z</time>
      </trkpt>
      <trkpt lat="48.20704" lon="-3.08611">
        <ele>112.9</ele>
        <time>2015-07-12T15:04:37Z</time>
      </trkpt>
      <trkpt lat="48.20714" lon="-3.08611">
        <ele>112.8</ele>
        <time>2015-07-12T15:04:45Z</time>
      </trkpt>
      <trkpt lat="48.20723" lon="-3.0861">
        <ele>112.8</ele>
        <time>2015-07-12T15:04:54Z</time>
      </trkpt>
      <trkpt lat="48.20733" lon="-3.08612">
        <ele>112.9</ele>
        <time>2015-07-12T15:05:04Z</time>
      </trkpt>
      <trkpt lat="48.20742" lon="-3.08612">
        <ele>113</ele>
        <time>2015-07-12T15:05:14Z</time>
      </trkpt>
      <trkpt lat="48.20751" lon="-3.08612">
        <ele>113.1</ele>
        <time>2015-07-12T15:05:23Z</time>
      </trkpt>
      <trkpt lat="48.2076" lon="-3.08613">
        <ele>112.8</ele>
        <time>2015-07-12T15:05:31Z</time>
      </trkpt>
      <trkpt lat="48.20769" lon="-3.08613">
        <ele>112.3</ele>
        <time>2015-07-12T15:05:41Z</time>
      </trkpt>
      <trkpt lat="48.20779" lon="-3.08613">
        <ele>112</ele>
        <time>2015-07-12T15:05:49Z</time>
      </trkpt>
      <trkpt lat="48.20788" lon="-3.08612">
        <ele>111.8</ele>
        <time>2015-07-12T15:05:57Z</time>
      </trkpt>
      <trkpt lat="48.20797" lon="-3.08609">
        <ele>111.5</ele>
        <time>2015-07-12T15:06:04Z</time>
      </trkpt>
      <trkpt lat="48.20807" lon="-3.08605">
        <ele>111</ele>
        <time>2015-07-12T15:06:12Z</time>
      </trkpt>
      <trkpt lat="48.20816" lon="-3.08601">
        <ele>110.7</ele>
        <time>2015-07-12T15:06:19Z</time>
      </trkpt>
      <trkpt lat="48.20825" lon="-3.08595">
        <ele>110.5</ele>
        <time>2015-07-12T15:06:26Z</time>
      </trkpt>
      <trkpt lat="48.20834" lon="-3.08588">
        <ele>110.4</ele>
        <time>2015-07-12T15:06:33Z</time>
      </trkpt>
      <trkpt lat="48.20842" lon="-3.08582">
        <ele>110.4</ele>
        <time>2015-07-12T15:06:41Z</time>
      </trkpt>
      <trkpt lat="48.2085" lon="-3.08576">
        <ele>110.4</ele>
        <time>2015-07-12T15:06:48Z</time>
      </trkpt>
      <trkpt lat="48.20859" lon="-3.08571">
        <ele>110.4</ele>
        <time>2015-07-12T15:06:55Z</time>
      </trkpt>
      <trkpt lat="48.20868" lon="-3.08563">
        <ele>110.4</ele>
        <time>2015-07-12T15:07:01Z</time>
      </trkpt>
      <trkpt lat="48.20876" lon="-3.08559">
        <ele>110.4</ele>
        <time>2015-07-12T15:07:09Z</time>
      </trkpt>
      <trkpt lat="48.20885" lon="-3.08553">
        <ele>110.4</ele>
        <time>2015-07-12T15:07:17Z</time>
      </trkpt>
      <trkpt lat="48.20893" lon="-3.08546">
        <ele>110.4</ele>
        <time>2015-07-12T15:07:24Z</time>
      </trkpt>
      <trkpt lat="48.20901" lon="-3.08539">
        <ele>110.4</ele>
        <time>2015-07-12T15:07:31Z</time>
      </trkpt>
      <trkpt lat="48.20908" lon="-3.08531">
        <ele>110.3</ele>
        <time>2015-07-12T15:07:37Z</time>
      </trkpt>
      <trkpt lat="48.20917" lon="-3.08523">
        <ele>110.3</ele>
        <time>2015-07-12T15:07:44Z</time>
      </trkpt>
      <trkpt lat="48.20927" lon="-3.08522">
        <ele>110.2</ele>
        <time>2015-07-12T15:07:51Z</time>
      </trkpt>
      <trkpt lat="48.20934" lon="-3.08514">
        <ele>110.1</ele>
        <time>2015-07-12T15:08:00Z</time>
      </trkpt>
      <trkpt lat="48.20943" lon="-3.08507">
        <ele>109.9</ele>
        <time>2015-07-12T15:08:09Z</time>
      </trkpt>
      <trkpt lat="48.20951" lon="-3.085">
        <ele>110</ele>
        <time>2015-07-12T15:08:22Z</time>
      </trkpt>
      <trkpt lat="48.2096" lon="-3.08496">
        <ele>110</ele>
        <time>2015-07-12T15:08:33Z</time>
      </trkpt>
      <trkpt lat="48.20971" lon="-3.08493">
        <ele>110.1</ele>
        <time>2015-07-12T15:08:42Z</time>
      </trkpt>
      <trkpt lat="48.20979" lon="-3.0849">
        <ele>110.1</ele>
        <time>2015-07-12T15:08:49Z</time>
      </trkpt>
      <trkpt lat="48.20987" lon="-3.08482">
        <ele>110.1</ele>
        <time>2015-07-12T15:08:59Z</time>
      </trkpt>
      <trkpt lat="48.20996" lon="-3.08477">
        <ele>110.1</ele>
        <time>2015-07-12T15:09:06Z</time>
      </trkpt>
      <trkpt lat="48.21002" lon="-3.08467">
        <ele>110.1</ele>
        <time>2015-07-12T15:09:15Z</time>
      </trkpt>
      <trkpt lat="48.21011" lon="-3.0846">
        <ele>109.9</ele>
        <time>2015-07-12T15:11:06Z</time>
      </trkpt>
      <trkpt lat="48.21019" lon="-3.08455">
        <ele>109.7</ele>
        <time>2015-07-12T15:11:34Z</time>
      </trkpt>
      <trkpt lat="48.21028" lon="-3.08449">
        <ele>109.6</ele>
        <time>2015-07-12T15:12:48Z</time>
      </trkpt>
      <trkpt lat="48.21038" lon="-3.08446">
        <ele>109.2</ele>
        <time>2015-07-12T15:12:58Z</time>
      </trkpt>
      <trkpt lat="48.21031" lon="-3.08458">
        <ele>108.9</ele>
        <time>2015-07-12T15:13:35Z</time>
      </trkpt>
      <trkpt lat="48.21024" lon="-3.08466">
        <ele>109.2</ele>
        <time>2015-07-12T15:13:47Z</time>
      </trkpt>
      <trkpt lat="48.21021" lon="-3.0848">
        <ele>109.5</ele>
        <time>2015-07-12T15:13:54Z</time>
      </trkpt>
      <trkpt lat="48.21021" lon="-3.08495">
        <ele>109.8</ele>
        <time>2015-07-12T15:14:05Z</time>
      </trkpt>
      <trkpt lat="48.2103" lon="-3.08495">
        <ele>110.1</ele>
        <time>2015-07-12T15:14:13Z</time>
      </trkpt>
      <trkpt lat="48.2104" lon="-3.08498">
        <ele>111.5</ele>
        <time>2015-07-12T15:14:23Z</time>
      </trkpt>
      <trkpt lat="48.21049" lon="-3.08492">
        <ele>113.2</ele>
        <time>2015-07-12T15:14:33Z</time>
      </trkpt>
      <trkpt lat="48.21057" lon="-3.08484">
        <ele>114.9</ele>
        <time>2015-07-12T15:14:43Z</time>
      </trkpt>
      <trkpt lat="48.21063" lon="-3.08473">
        <ele>116.2</ele>
        <time>2015-07-12T15:14:52Z</time>
      </trkpt>
      <trkpt lat="48.21067" lon="-3.0846">
        <ele>117.1</ele>
        <time>2015-07-12T15:15:03Z</time>
      </trkpt>
      <trkpt lat="48.21069" lon="-3.08446">
        <ele>117</ele>
        <time>2015-07-12T15:15:12Z</time>
      </trkpt>
      <trkpt lat="48.21071" lon="-3.08432">
        <ele>115.8</ele>
        <time>2015-07-12T15:15:23Z</time>
      </trkpt>
      <trkpt lat="48.21073" lon="-3.08418">
        <ele>114.4</ele>
        <time>2015-07-12T15:15:35Z</time>
      </trkpt>
      <trkpt lat="48.21072" lon="-3.08403">
        <ele>113.1</ele>
        <time>2015-07-12T15:15:43Z</time>
      </trkpt>
      <trkpt lat="48.21066" lon="-3.08393">
        <ele>110.2</ele>
        <time>2015-07-12T15:15:59Z</time>
      </trkpt>
      <trkpt lat="48.21068" lon="-3.08379">
        <ele>108.3</ele>
        <time>2015-07-12T15:16:28Z</time>
      </trkpt>
      <trkpt lat="48.21069" lon="-3.08365">
        <ele>108.2</ele>
        <time>2015-07-12T15:16:37Z</time>
      </trkpt>
      <trkpt lat="48.21071" lon="-3.08351">
        <ele>108.1</ele>
        <time>2015-07-12T15:16:47Z</time>
      </trkpt>
      <trkpt lat="48.21072" lon="-3.08337">
        <ele>108.1</ele>
        <time>2015-07-12T15:16:55Z</time>
      </trkpt>
      <trkpt lat="48.21073" lon="-3.08322">
        <ele>108</ele>
        <time>2015-07-12T15:17:03Z</time>
      </trkpt>
      <trkpt lat="48.21075" lon="-3.08308">
        <ele>107.9</ele>
        <time>2015-07-12T15:17:12Z</time>
      </trkpt>
      <trkpt lat="48.21078" lon="-3.08295">
        <ele>107.6</ele>
        <time>2015-07-12T15:17:25Z</time>
      </trkpt>
      <trkpt lat="48.21083" lon="-3.08284">
        <ele>107.3</ele>
        <time>2015-07-12T15:17:33Z</time>
      </trkpt>
      <trkpt lat="48.21087" lon="-3.08271">
        <ele>107</ele>
        <time>2015-07-12T15:17:42Z</time>
      </trkpt>
      <trkpt lat="48.21091" lon="-3.08258">
        <ele>106.8</ele>
        <time>2015-07-12T15:17:50Z</time>
      </trkpt>
      <trkpt lat="48.21093" lon="-3.08245">
        <ele>106.5</ele>
        <time>2015-07-12T15:17:59Z</time>
      </trkpt>
      <trkpt lat="48.21097" lon="-3.08232">
        <ele>106.3</ele>
        <time>2015-07-12T15:18:08Z</time>
      </trkpt>
      <trkpt lat="48.21101" lon="-3.08218">
        <ele>106.2</ele>
        <time>2015-07-12T15:18:19Z</time>
      </trkpt>
      <trkpt lat="48.21104" lon="-3.08205">
        <ele>106.3</ele>
        <time>2015-07-12T15:18:45Z</time>
      </trkpt>
      <trkpt lat="48.2111" lon="-3.08194">
        <ele>106.2</ele>
        <time>2015-07-12T15:18:51Z</time>
      </trkpt>
      <trkpt lat="48.21112" lon="-3.0818">
        <ele>106.2</ele>
        <time>2015-07-12T15:18:58Z</time>
      </trkpt>
      <trkpt lat="48.21114" lon="-3.08167">
        <ele>106.1</ele>
        <time>2015-07-12T15:19:05Z</time>
      </trkpt>
      <trkpt lat="48.21117" lon="-3.08154">
        <ele>106.2</ele>
        <time>2015-07-12T15:19:14Z</time>
      </trkpt>
      <trkpt lat="48.21122" lon="-3.08139">
        <ele>106.3</ele>
        <time>2015-07-12T15:19:26Z</time>
      </trkpt>
      <trkpt lat="48.21127" lon="-3.08128">
        <ele>106.3</ele>
        <time>2015-07-12T15:19:33Z</time>
      </trkpt>
      <trkpt lat="48.21131" lon="-3.08115">
        <ele>106.3</ele>
        <time>2015-07-12T15:19:42Z</time>
      </trkpt>
      <trkpt lat="48.21134" lon="-3.08102">
        <ele>106.3</ele>
        <time>2015-07-12T15:19:50Z</time>
      </trkpt>
      <trkpt lat="48.21137" lon="-3.08089">
        <ele>106.3</ele>
        <time>2015-07-12T15:19:57Z</time>
      </trkpt>
      <trkpt lat="48.21141" lon="-3.08076">
        <ele>106.2</ele>
        <time>2015-07-12T15:20:06Z</time>
      </trkpt>
      <trkpt lat="48.21146" lon="-3.08064">
        <ele>105.9</ele>
        <time>2015-07-12T15:20:14Z</time>
      </trkpt>
      <trkpt lat="48.21149" lon="-3.08051">
        <ele>105.7</ele>
        <time>2015-07-12T15:20:23Z</time>
      </trkpt>
      <trkpt lat="48.21153" lon="-3.08038">
        <ele>105.6</ele>
        <time>2015-07-12T15:20:32Z</time>
      </trkpt>
      <trkpt lat="48.21157" lon="-3.08026">
        <ele>105.5</ele>
        <time>2015-07-12T15:20:40Z</time>
      </trkpt>
      <trkpt lat="48.21157" lon="-3.08012">
        <ele>105.5</ele>
        <time>2015-07-12T15:20:47Z</time>
      </trkpt>
      <trkpt lat="48.21158" lon="-3.07998">
        <ele>105.4</ele>
        <time>2015-07-12T15:20:56Z</time>
      </trkpt>
      <trkpt lat="48.21158" lon="-3.07984">
        <ele>105.4</ele>
        <time>2015-07-12T15:21:03Z</time>
      </trkpt>
      <trkpt lat="48.21157" lon="-3.0797">
        <ele>105.4</ele>
        <time>2015-07-12T15:21:12Z</time>
      </trkpt>
      <trkpt lat="48.21153" lon="-3.07958">
        <ele>105.4</ele>
        <time>2015-07-12T15:21:19Z</time>
      </trkpt>
      <trkpt lat="48.21151" lon="-3.07943">
        <ele>105.3</ele>
        <time>2015-07-12T15:21:30Z</time>
      </trkpt>
      <trkpt lat="48.21146" lon="-3.07931">
        <ele>105.3</ele>
        <time>2015-07-12T15:21:37Z</time>
      </trkpt>
      <trkpt lat="48.21144" lon="-3.07917">
        <ele>105.2</ele>
        <time>2015-07-12T15:21:46Z</time>
      </trkpt>
      <trkpt lat="48.21141" lon="-3.07904">
        <ele>105.1</ele>
        <time>2015-07-12T15:21:55Z</time>
      </trkpt>
      <trkpt lat="48.21137" lon="-3.07891">
        <ele>105.1</ele>
        <time>2015-07-12T15:22:02Z</time>
      </trkpt>
      <trkpt lat="48.21134" lon="-3.07877">
        <ele>105</ele>
        <time>2015-07-12T15:22:12Z</time>
      </trkpt>
      <trkpt lat="48.21129" lon="-3.07865">
        <ele>105</ele>
        <time>2015-07-12T15:22:20Z</time>
      </trkpt>
      <trkpt lat="48.21126" lon="-3.07852">
        <ele>105</ele>
        <time>2015-07-12T15:22:32Z</time>
      </trkpt>
      <trkpt lat="48.2112" lon="-3.0784">
        <ele>105</ele>
        <time>2015-07-12T15:22:39Z</time>
      </trkpt>
      <trkpt lat="48.21117" lon="-3.07827">
        <ele>105</ele>
        <time>2015-07-12T15:22:47Z</time>
      </trkpt>
      <trkpt lat="48.21112" lon="-3.07813">
        <ele>105.1</ele>
        <time>2015-07-12T15:22:54Z</time>
      </trkpt>
      <trkpt lat="48.21107" lon="-3.07802">
        <ele>105.1</ele>
        <time>2015-07-12T15:23:01Z</time>
      </trkpt>
      <trkpt lat="48.211" lon="-3.07793">
        <ele>105.2</ele>
        <time>2015-07-12T15:23:09Z</time>
      </trkpt>
      <trkpt lat="48.21096" lon="-3.07779">
        <ele>105.2</ele>
        <time>2015-07-12T15:23:17Z</time>
      </trkpt>
      <trkpt lat="48.21093" lon="-3.07766">
        <ele>105.2</ele>
        <time>2015-07-12T15:23:24Z</time>
      </trkpt>
      <trkpt lat="48.21089" lon="-3.07753">
        <ele>104.3</ele>
        <time>2015-07-12T15:23:34Z</time>
      </trkpt>
      <trkpt lat="48.21085" lon="-3.0774">
        <ele>103.8</ele>
        <time>2015-07-12T15:23:44Z</time>
      </trkpt>
      <trkpt lat="48.21081" lon="-3.07728">
        <ele>103.8</ele>
        <time>2015-07-12T15:23:52Z</time>
      </trkpt>
      <trkpt lat="48.21074" lon="-3.07716">
        <ele>104</ele>
        <time>2015-07-12T15:24:00Z</time>
      </trkpt>
      <trkpt lat="48.21068" lon="-3.07704">
        <ele>104.3</ele>
        <time>2015-07-12T15:24:07Z</time>
      </trkpt>
      <trkpt lat="48.21063" lon="-3.07693">
        <ele>104.3</ele>
        <time>2015-07-12T15:24:14Z</time>
      </trkpt>
      <trkpt lat="48.21055" lon="-3.07685">
        <ele>104.4</ele>
        <time>2015-07-12T15:24:20Z</time>
      </trkpt>
      <trkpt lat="48.21058" lon="-3.07672">
        <ele>105</ele>
        <time>2015-07-12T15:26:34Z</time>
      </trkpt>
      <trkpt lat="48.21066" lon="-3.07678">
        <ele>108.1</ele>
        <time>2015-07-12T15:27:01Z</time>
      </trkpt>
      <trkpt lat="48.21061" lon="-3.0769">
        <ele>107</ele>
        <time>2015-07-12T15:27:34Z</time>
      </trkpt>
      <trkpt lat="48.21059" lon="-3.07675">
        <ele>107.2</ele>
        <time>2015-07-12T15:28:21Z</time>
      </trkpt>
      <trkpt lat="48.21064" lon="-3.07664">
        <ele>107.2</ele>
        <time>2015-07-12T15:28:34Z</time>
      </trkpt>
      <trkpt lat="48.2106" lon="-3.07676">
        <ele>108.8</ele>
        <time>2015-07-12T15:29:25Z</time>
      </trkpt>
      <trkpt lat="48.21063" lon="-3.0769">
        <ele>108.3</ele>
        <time>2015-07-12T15:29:36Z</time>
      </trkpt>
      <trkpt lat="48.21068" lon="-3.07702">
        <ele>108.6</ele>
        <time>2015-07-12T15:29:46Z</time>
      </trkpt>
      <trkpt lat="48.21072" lon="-3.07714">
        <ele>108.7</ele>
        <time>2015-07-12T15:29:56Z</time>
      </trkpt>
      <trkpt lat="48.2108" lon="-3.07722">
        <ele>109</ele>
        <time>2015-07-12T15:30:10Z</time>
      </trkpt>
      <trkpt lat="48.21087" lon="-3.07731">
        <ele>108</ele>
        <time>2015-07-12T15:30:22Z</time>
      </trkpt>
      <trkpt lat="48.21093" lon="-3.07741">
        <ele>107</ele>
        <time>2015-07-12T15:30:31Z</time>
      </trkpt>
      <trkpt lat="48.21099" lon="-3.07753">
        <ele>106.9</ele>
        <time>2015-07-12T15:30:43Z</time>
      </trkpt>
      <trkpt lat="48.21103" lon="-3.07765">
        <ele>108.2</ele>
        <time>2015-07-12T15:32:03Z</time>
      </trkpt>
      <trkpt lat="48.21112" lon="-3.07773">
        <ele>109.7</ele>
        <time>2015-07-12T15:32:17Z</time>
      </trkpt>
      <trkpt lat="48.21114" lon="-3.07787">
        <ele>112.9</ele>
        <time>2015-07-12T15:32:39Z</time>
      </trkpt>
      <trkpt lat="48.21121" lon="-3.07797">
        <ele>113.5</ele>
        <time>2015-07-12T15:32:46Z</time>
      </trkpt>
      <trkpt lat="48.21129" lon="-3.07802">
        <ele>114.9</ele>
        <time>2015-07-12T15:32:55Z</time>
      </trkpt>
      <trkpt lat="48.21137" lon="-3.07808">
        <ele>117.1</ele>
        <time>2015-07-12T15:34:30Z</time>
      </trkpt>
      <trkpt lat="48.21146" lon="-3.07816">
        <ele>117.1</ele>
        <time>2015-07-12T15:34:40Z</time>
      </trkpt>
      <trkpt lat="48.21151" lon="-3.07828">
        <ele>115.8</ele>
        <time>2015-07-12T15:35:01Z</time>
      </trkpt>
      <trkpt lat="48.21159" lon="-3.07834">
        <ele>113.6</ele>
        <time>2015-07-12T15:35:13Z</time>
      </trkpt>
      <trkpt lat="48.21167" lon="-3.07841">
        <ele>112</ele>
        <time>2015-07-12T15:35:42Z</time>
      </trkpt>
      <trkpt lat="48.21166" lon="-3.07854">
        <ele>112.4</ele>
        <time>2015-07-12T15:36:14Z</time>
      </trkpt>
      <trkpt lat="48.21169" lon="-3.07869">
        <ele>112.2</ele>
        <time>2015-07-12T15:36:23Z</time>
      </trkpt>
      <trkpt lat="48.21174" lon="-3.07881">
        <ele>112.4</ele>
        <time>2015-07-12T15:36:38Z</time>
      </trkpt>
      <trkpt lat="48.21179" lon="-3.07894">
        <ele>112.6</ele>
        <time>2015-07-12T15:36:47Z</time>
      </trkpt>
      <trkpt lat="48.21176" lon="-3.07908">
        <ele>112.5</ele>
        <time>2015-07-12T15:36:57Z</time>
      </trkpt>
      <trkpt lat="48.2118" lon="-3.0792">
        <ele>112</ele>
        <time>2015-07-12T15:37:08Z</time>
      </trkpt>
      <trkpt lat="48.21189" lon="-3.07924">
        <ele>110.7</ele>
        <time>2015-07-12T15:37:28Z</time>
      </trkpt>
      <trkpt lat="48.21199" lon="-3.07928">
        <ele>110.3</ele>
        <time>2015-07-12T15:37:41Z</time>
      </trkpt>
      <trkpt lat="48.21207" lon="-3.07935">
        <ele>110.9</ele>
        <time>2015-07-12T15:37:53Z</time>
      </trkpt>
      <trkpt lat="48.21213" lon="-3.07925">
        <ele>111.5</ele>
        <time>2015-07-12T15:38:08Z</time>
      </trkpt>
      <trkpt lat="48.21221" lon="-3.07918">
        <ele>112</ele>
        <time>2015-07-12T15:38:18Z</time>
      </trkpt>
      <trkpt lat="48.21214" lon="-3.07927">
        <ele>112.4</ele>
        <time>2015-07-12T15:38:58Z</time>
      </trkpt>
      <trkpt lat="48.21205" lon="-3.07932">
        <ele>112.4</ele>
        <time>2015-07-12T15:39:09Z</time>
      </trkpt>
      <trkpt lat="48.21199" lon="-3.07942">
        <ele>112.4</ele>
        <time>2015-07-12T15:39:17Z</time>
      </trkpt>
      <trkpt lat="48.21207" lon="-3.07948">
        <ele>112.3</ele>
        <time>2015-07-12T15:39:24Z</time>
      </trkpt>
      <trkpt lat="48.21215" lon="-3.07956">
        <ele>112.2</ele>
        <time>2015-07-12T15:39:34Z</time>
      </trkpt>
      <trkpt lat="48.21221" lon="-3.07966">
        <ele>112.9</ele>
        <time>2015-07-12T15:39:47Z</time>
      </trkpt>
      <trkpt lat="48.21219" lon="-3.0798">
        <ele>114.9</ele>
        <time>2015-07-12T15:40:01Z</time>
      </trkpt>
      <trkpt lat="48.21214" lon="-3.07991">
        <ele>116.7</ele>
        <time>2015-07-12T15:40:11Z</time>
      </trkpt>
      <trkpt lat="48.21211" lon="-3.08006">
        <ele>117.7</ele>
        <time>2015-07-12T15:40:21Z</time>
      </trkpt>
      <trkpt lat="48.2121" lon="-3.0802">
        <ele>118.9</ele>
        <time>2015-07-12T15:40:32Z</time>
      </trkpt>
      <trkpt lat="48.2121" lon="-3.08033">
        <ele>119.6</ele>
        <time>2015-07-12T15:40:43Z</time>
      </trkpt>
      <trkpt lat="48.21211" lon="-3.08047">
        <ele>120.1</ele>
        <time>2015-07-12T15:40:54Z</time>
      </trkpt>
      <trkpt lat="48.21211" lon="-3.08062">
        <ele>120.6</ele>
        <time>2015-07-12T15:41:03Z</time>
      </trkpt>
      <trkpt lat="48.21212" lon="-3.08077">
        <ele>120.9</ele>
        <time>2015-07-12T15:41:12Z</time>
      </trkpt>
      <trkpt lat="48.21211" lon="-3.08091">
        <ele>121.1</ele>
        <time>2015-07-12T15:41:21Z</time>
      </trkpt>
      <trkpt lat="48.21209" lon="-3.08105">
        <ele>121.5</ele>
        <time>2015-07-12T15:41:31Z</time>
      </trkpt>
      <trkpt lat="48.21207" lon="-3.08118">
        <ele>122.3</ele>
        <time>2015-07-12T15:41:40Z</time>
      </trkpt>
      <trkpt lat="48.21206" lon="-3.08133">
        <ele>123</ele>
        <time>2015-07-12T15:41:50Z</time>
      </trkpt>
      <trkpt lat="48.21205" lon="-3.08146">
        <ele>123.5</ele>
        <time>2015-07-12T15:42:00Z</time>
      </trkpt>
      <trkpt lat="48.21205" lon="-3.08161">
        <ele>124.1</ele>
        <time>2015-07-12T15:42:10Z</time>
      </trkpt>
      <trkpt lat="48.21205" lon="-3.08175">
        <ele>124.8</ele>
        <time>2015-07-12T15:42:21Z</time>
      </trkpt>
      <trkpt lat="48.21204" lon="-3.08188">
        <ele>125.4</ele>
        <time>2015-07-12T15:42:34Z</time>
      </trkpt>
      <trkpt lat="48.21201" lon="-3.08202">
        <ele>126</ele>
        <time>2015-07-12T15:42:45Z</time>
      </trkpt>
      <trkpt lat="48.21199" lon="-3.08215">
        <ele>126.6</ele>
        <time>2015-07-12T15:42:57Z</time>
      </trkpt>
      <trkpt lat="48.21197" lon="-3.08229">
        <ele>127.7</ele>
        <time>2015-07-12T15:43:14Z</time>
      </trkpt>
      <trkpt lat="48.2119" lon="-3.0824">
        <ele>128</ele>
        <time>2015-07-12T15:43:24Z</time>
      </trkpt>
      <trkpt lat="48.21182" lon="-3.08244">
        <ele>128.2</ele>
        <time>2015-07-12T15:43:49Z</time>
      </trkpt>
      <trkpt lat="48.21172" lon="-3.08243">
        <ele>127.8</ele>
        <time>2015-07-12T15:44:01Z</time>
      </trkpt>
      <trkpt lat="48.21164" lon="-3.08247">
        <ele>128</ele>
        <time>2015-07-12T15:44:12Z</time>
      </trkpt>
      <trkpt lat="48.21156" lon="-3.08254">
        <ele>128.9</ele>
        <time>2015-07-12T15:44:45Z</time>
      </trkpt>
      <trkpt lat="48.21149" lon="-3.08264">
        <ele>129.4</ele>
        <time>2015-07-12T15:44:56Z</time>
      </trkpt>
      <trkpt lat="48.2114" lon="-3.08267">
        <ele>130.1</ele>
        <time>2015-07-12T15:48:50Z</time>
      </trkpt>
      <trkpt lat="48.21146" lon="-3.08277">
        <ele>129.7</ele>
        <time>2015-07-12T15:49:47Z</time>
      </trkpt>
      <trkpt lat="48.21147" lon="-3.0829">
        <ele>130.4</ele>
        <time>2015-07-12T15:50:00Z</time>
      </trkpt>
      <trkpt lat="48.21142" lon="-3.08302">
        <ele>130.9</ele>
        <time>2015-07-12T15:50:11Z</time>
      </trkpt>
      <trkpt lat="48.21134" lon="-3.0831">
        <ele>131.4</ele>
        <time>2015-07-12T15:50:22Z</time>
      </trkpt>
      <trkpt lat="48.21128" lon="-3.08321">
        <ele>132.1</ele>
        <time>2015-07-12T15:50:33Z</time>
      </trkpt>
      <trkpt lat="48.21125" lon="-3.08336">
        <ele>133.5</ele>
        <time>2015-07-12T15:50:46Z</time>
      </trkpt>
      <trkpt lat="48.21123" lon="-3.0835">
        <ele>134.6</ele>
        <time>2015-07-12T15:50:59Z</time>
      </trkpt>
      <trkpt lat="48.21123" lon="-3.08363">
        <ele>136</ele>
        <time>2015-07-12T15:51:08Z</time>
      </trkpt>
      <trkpt lat="48.21121" lon="-3.08377">
        <ele>137.4</ele>
        <time>2015-07-12T15:51:18Z</time>
      </trkpt>
      <trkpt lat="48.2112" lon="-3.08391">
        <ele>139.1</ele>
        <time>2015-07-12T15:51:29Z</time>
      </trkpt>
      <trkpt lat="48.21118" lon="-3.08407">
        <ele>140.5</ele>
        <time>2015-07-12T15:51:40Z</time>
      </trkpt>
      <trkpt lat="48.21118" lon="-3.08421">
        <ele>141.9</ele>
        <time>2015-07-12T15:51:50Z</time>
      </trkpt>
      <trkpt lat="48.21119" lon="-3.08434">
        <ele>143</ele>
        <time>2015-07-12T15:52:00Z</time>
      </trkpt>
      <trkpt lat="48.21124" lon="-3.08446">
        <ele>144.2</ele>
        <time>2015-07-12T15:52:10Z</time>
      </trkpt>
      <trkpt lat="48.21127" lon="-3.0846">
        <ele>145</ele>
        <time>2015-07-12T15:52:18Z</time>
      </trkpt>
      <trkpt lat="48.21131" lon="-3.08472">
        <ele>146.5</ele>
        <time>2015-07-12T15:52:28Z</time>
      </trkpt>
      <trkpt lat="48.2114" lon="-3.08477">
        <ele>147.7</ele>
        <time>2015-07-12T15:52:39Z</time>
      </trkpt>
      <trkpt lat="48.21147" lon="-3.0847">
        <ele>148.4</ele>
        <time>2015-07-12T15:52:45Z</time>
      </trkpt>
      <trkpt lat="48.21154" lon="-3.08461">
        <ele>150.7</ele>
        <time>2015-07-12T15:53:30Z</time>
      </trkpt>
      <trkpt lat="48.21163" lon="-3.08458">
        <ele>151.7</ele>
        <time>2015-07-12T15:56:46Z</time>
      </trkpt>
      <trkpt lat="48.21172" lon="-3.08463">
        <ele>152.2</ele>
        <time>2015-07-12T15:57:07Z</time>
      </trkpt>
      <trkpt lat="48.21181" lon="-3.08463">
        <ele>154.2</ele>
        <time>2015-07-12T15:57:21Z</time>
      </trkpt>
      <trkpt lat="48.21191" lon="-3.08465">
        <ele>154.6</ele>
        <time>2015-07-12T15:57:29Z</time>
      </trkpt>
      <trkpt lat="48.212" lon="-3.08466">
        <ele>155.8</ele>
        <time>2015-07-12T15:57:39Z</time>
      </trkpt>
      <trkpt lat="48.21209" lon="-3.08462">
        <ele>156.3</ele>
        <time>2015-07-12T15:57:46Z</time>
      </trkpt>
      <trkpt lat="48.21217" lon="-3.08454">
        <ele>156.8</ele>
        <time>2015-07-12T15:57:50Z</time>
      </trkpt>
      <trkpt lat="48.21224" lon="-3.08445">
        <ele>157.6</ele>
        <time>2015-07-12T15:57:57Z</time>
      </trkpt>
      <trkpt lat="48.21232" lon="-3.08435">
        <ele>158.1</ele>
        <time>2015-07-12T15:58:03Z</time>
      </trkpt>
      <trkpt lat="48.21238" lon="-3.08425">
        <ele>158.3</ele>
        <time>2015-07-12T15:58:11Z</time>
      </trkpt>
      <trkpt lat="48.21245" lon="-3.08415">
        <ele>158.3</ele>
        <time>2015-07-12T15:58:16Z</time>
      </trkpt>
      <trkpt lat="48.21252" lon="-3.08405">
        <ele>158.3</ele>
        <time>2015-07-12T15:58:24Z</time>
      </trkpt>
      <trkpt lat="48.21259" lon="-3.08394">
        <ele>157.9</ele>
        <time>2015-07-12T15:58:32Z</time>
      </trkpt>
      <trkpt lat="48.21266" lon="-3.08385">
        <ele>157.5</ele>
        <time>2015-07-12T15:58:37Z</time>
      </trkpt>
      <trkpt lat="48.21275" lon="-3.08379">
        <ele>156.9</ele>
        <time>2015-07-12T15:58:45Z</time>
      </trkpt>
      <trkpt lat="48.21284" lon="-3.08376">
        <ele>156.9</ele>
        <time>2015-07-12T15:58:53Z</time>
      </trkpt>
      <trkpt lat="48.21294" lon="-3.08372">
        <ele>157.1</ele>
        <time>2015-07-12T15:59:01Z</time>
      </trkpt>
      <trkpt lat="48.21304" lon="-3.0837">
        <ele>157.3</ele>
        <time>2015-07-12T15:59:10Z</time>
      </trkpt>
      <trkpt lat="48.21313" lon="-3.08369">
        <ele>157.9</ele>
        <time>2015-07-12T15:59:20Z</time>
      </trkpt>
      <trkpt lat="48.21321" lon="-3.08378">
        <ele>158.4</ele>
        <time>2015-07-12T15:59:26Z</time>
      </trkpt>
      <trkpt lat="48.21326" lon="-3.0839">
        <ele>159.1</ele>
        <time>2015-07-12T15:59:34Z</time>
      </trkpt>
      <trkpt lat="48.2133" lon="-3.08402">
        <ele>159.8</ele>
        <time>2015-07-12T15:59:42Z</time>
      </trkpt>
      <trkpt lat="48.21329" lon="-3.08417">
        <ele>160.7</ele>
        <time>2015-07-12T15:59:51Z</time>
      </trkpt>
      <trkpt lat="48.21328" lon="-3.08431">
        <ele>161.4</ele>
        <time>2015-07-12T15:59:59Z</time>
      </trkpt>
      <trkpt lat="48.21332" lon="-3.08444">
        <ele>162</ele>
        <time>2015-07-12T16:00:06Z</time>
      </trkpt>
      <trkpt lat="48.21332" lon="-3.08458">
        <ele>162.9</ele>
        <time>2015-07-12T16:00:15Z</time>
      </trkpt>
      <trkpt lat="48.2133" lon="-3.08471">
        <ele>163.5</ele>
        <time>2015-07-12T16:00:22Z</time>
      </trkpt>
      <trkpt lat="48.21326" lon="-3.08485">
        <ele>164.1</ele>
        <time>2015-07-12T16:00:30Z</time>
      </trkpt>
      <trkpt lat="48.21321" lon="-3.085">
        <ele>164.6</ele>
        <time>2015-07-12T16:00:39Z</time>
      </trkpt>
      <trkpt lat="48.21317" lon="-3.08512">
        <ele>164.9</ele>
        <time>2015-07-12T16:00:46Z</time>
      </trkpt>
      <trkpt lat="48.2131" lon="-3.08525">
        <ele>165.3</ele>
        <time>2015-07-12T16:00:54Z</time>
      </trkpt>
      <trkpt lat="48.21314" lon="-3.0854">
        <ele>165.5</ele>
        <time>2015-07-12T16:01:02Z</time>
      </trkpt>
      <trkpt lat="48.21322" lon="-3.08548">
        <ele>165.9</ele>
        <time>2015-07-12T16:01:09Z</time>
      </trkpt>
      <trkpt lat="48.21331" lon="-3.08555">
        <ele>166.1</ele>
        <time>2015-07-12T16:01:16Z</time>
      </trkpt>
      <trkpt lat="48.21338" lon="-3.08564">
        <ele>166.3</ele>
        <time>2015-07-12T16:01:23Z</time>
      </trkpt>
      <trkpt lat="48.21344" lon="-3.08575">
        <ele>166.8</ele>
        <time>2015-07-12T16:01:30Z</time>
      </trkpt>
      <trkpt lat="48.2135" lon="-3.08587">
        <ele>167.1</ele>
        <time>2015-07-12T16:01:37Z</time>
      </trkpt>
      <trkpt lat="48.21354" lon="-3.08599">
        <ele>168.2</ele>
        <time>2015-07-12T16:01:47Z</time>
      </trkpt>
      <trkpt lat="48.2136" lon="-3.08609">
        <ele>168.9</ele>
        <time>2015-07-12T16:01:55Z</time>
      </trkpt>
      <trkpt lat="48.2136" lon="-3.08625">
        <ele>169.2</ele>
        <time>2015-07-12T16:02:04Z</time>
      </trkpt>
      <trkpt lat="48.21368" lon="-3.08632">
        <ele>169.4</ele>
        <time>2015-07-12T16:02:11Z</time>
      </trkpt>
      <trkpt lat="48.21377" lon="-3.08639">
        <ele>169.7</ele>
        <time>2015-07-12T16:02:18Z</time>
      </trkpt>
      <trkpt lat="48.21384" lon="-3.08649">
        <ele>170.2</ele>
        <time>2015-07-12T16:02:26Z</time>
      </trkpt>
      <trkpt lat="48.21391" lon="-3.08659">
        <ele>171</ele>
        <time>2015-07-12T16:02:35Z</time>
      </trkpt>
      <trkpt lat="48.21399" lon="-3.08665">
        <ele>171.4</ele>
        <time>2015-07-12T16:02:42Z</time>
      </trkpt>
      <trkpt lat="48.21408" lon="-3.08671">
        <ele>172.2</ele>
        <time>2015-07-12T16:02:49Z</time>
      </trkpt>
      <trkpt lat="48.21417" lon="-3.08678">
        <ele>173.1</ele>
        <time>2015-07-12T16:02:57Z</time>
      </trkpt>
      <trkpt lat="48.21426" lon="-3.08684">
        <ele>173.9</ele>
        <time>2015-07-12T16:03:08Z</time>
      </trkpt>
      <trkpt lat="48.21435" lon="-3.08685">
        <ele>174.5</ele>
        <time>2015-07-12T16:03:14Z</time>
      </trkpt>
      <trkpt lat="48.21445" lon="-3.08688">
        <ele>175.3</ele>
        <time>2015-07-12T16:03:23Z</time>
      </trkpt>
      <trkpt lat="48.21453" lon="-3.08697">
        <ele>175.9</ele>
        <time>2015-07-12T16:03:31Z</time>
      </trkpt>
      <trkpt lat="48.21461" lon="-3.08705">
        <ele>176.6</ele>
        <time>2015-07-12T16:03:40Z</time>
      </trkpt>
      <trkpt lat="48.2147" lon="-3.08707">
        <ele>177.2</ele>
        <time>2015-07-12T16:03:48Z</time>
      </trkpt>
      <trkpt lat="48.21476" lon="-3.08702">
        <ele>178.9</ele>
        <time>2015-07-12T16:04:03Z</time>
      </trkpt>
    </trkseg>
  </trk>
</gpx>